<?xml version="1.0" encoding="UTF-8" standalone="no" ?>
<gpx xmlns="http://www.topografix.com/GPX/1/1" xmlns:xsi="http://www.w3.org/2001/XMLSchema-instance" xsi:schemaLocation="http://www.topografix.com/GPX/1/1 http://www.topografix.com/GPX/1/1/gpx.xsd" version="1.1" creator="VisuGPX - https://www.visugpx.com">
  <metadata>
    <name>Tour du Mont Viso en 5 jours</name>
    <desc><![CDATA[Départ d\'Abriès]]></desc>
  </metadata>
  <trk>
    <name><![CDATA[Tour du Mt Viso en 5 jours]]></name>
    <trkseg>
      <trkpt lat="44.75742" lon="6.99264">
        <ele>1700</ele>
        <time>2014-07-15T09:09:31+02:00</time>
      </trkpt>
      <trkpt lat="44.75782" lon="6.99264">
        <ele>1699</ele>
        <time>2014-07-15T09:09:36+02:00</time>
      </trkpt>
      <trkpt lat="44.75796" lon="6.99292">
        <ele>1699</ele>
        <time>2014-07-15T09:09:41+02:00</time>
      </trkpt>
      <trkpt lat="44.75881" lon="6.99318">
        <ele>1697</ele>
        <time>2014-07-15T09:09:46+02:00</time>
      </trkpt>
      <trkpt lat="44.75877" lon="6.99423">
        <ele>1708</ele>
        <time>2014-07-15T09:09:51+02:00</time>
      </trkpt>
      <trkpt lat="44.7587" lon="6.99441">
        <ele>1710</ele>
        <time>2014-07-15T09:09:56+02:00</time>
      </trkpt>
      <trkpt lat="44.75868" lon="6.99538">
        <ele>1726</ele>
        <time>2014-07-15T09:10:01+02:00</time>
      </trkpt>
      <trkpt lat="44.75898" lon="6.99565">
        <ele>1733</ele>
        <time>2014-07-15T09:10:06+02:00</time>
      </trkpt>
      <trkpt lat="44.75911" lon="6.99601">
        <ele>1743</ele>
        <time>2014-07-15T09:10:11+02:00</time>
      </trkpt>
      <trkpt lat="44.75909" lon="6.99648">
        <ele>1755</ele>
        <time>2014-07-15T09:10:16+02:00</time>
      </trkpt>
      <trkpt lat="44.75959" lon="6.99648">
        <ele>1764</ele>
        <time>2014-07-15T09:10:21+02:00</time>
      </trkpt>
      <trkpt lat="44.76031" lon="6.99716">
        <ele>1806</ele>
        <time>2014-07-15T09:10:26+02:00</time>
      </trkpt>
      <trkpt lat="44.76071" lon="6.99721">
        <ele>1815</ele>
        <time>2014-07-15T09:10:31+02:00</time>
      </trkpt>
      <trkpt lat="44.76049" lon="6.99747">
        <ele>1821</ele>
        <time>2014-07-15T09:10:36+02:00</time>
      </trkpt>
      <trkpt lat="44.76108" lon="6.99751">
        <ele>1831</ele>
        <time>2014-07-15T09:10:41+02:00</time>
      </trkpt>
      <trkpt lat="44.76029" lon="6.99807">
        <ele>1838</ele>
        <time>2014-07-15T09:10:46+02:00</time>
      </trkpt>
      <trkpt lat="44.76071" lon="6.99841">
        <ele>1858</ele>
        <time>2014-07-15T09:10:51+02:00</time>
      </trkpt>
      <trkpt lat="44.76023" lon="6.9986">
        <ele>1853</ele>
        <time>2014-07-15T09:10:56+02:00</time>
      </trkpt>
      <trkpt lat="44.76013" lon="6.99875">
        <ele>1855</ele>
        <time>2014-07-15T09:11:01+02:00</time>
      </trkpt>
      <trkpt lat="44.7602" lon="6.99891">
        <ele>1865</ele>
        <time>2014-07-15T09:11:06+02:00</time>
      </trkpt>
      <trkpt lat="44.76094" lon="6.99913">
        <ele>1889</ele>
        <time>2014-07-15T09:11:11+02:00</time>
      </trkpt>
      <trkpt lat="44.7613" lon="6.9997">
        <ele>1915</ele>
        <time>2014-07-15T09:11:16+02:00</time>
      </trkpt>
      <trkpt lat="44.76159" lon="6.99982">
        <ele>1919</ele>
        <time>2014-07-15T09:11:21+02:00</time>
      </trkpt>
      <trkpt lat="44.7618" lon="7.00009">
        <ele>1928</ele>
        <time>2014-07-15T09:11:26+02:00</time>
      </trkpt>
      <trkpt lat="44.76173" lon="7.00028">
        <ele>1934</ele>
        <time>2014-07-15T09:11:31+02:00</time>
      </trkpt>
      <trkpt lat="44.76157" lon="7.00043">
        <ele>1939</ele>
        <time>2014-07-15T09:11:36+02:00</time>
      </trkpt>
      <trkpt lat="44.7617" lon="7.00069">
        <ele>1948</ele>
        <time>2014-07-15T09:11:41+02:00</time>
      </trkpt>
      <trkpt lat="44.76227" lon="7.00084">
        <ele>1954</ele>
        <time>2014-07-15T09:11:46+02:00</time>
      </trkpt>
      <trkpt lat="44.76236" lon="7.00093">
        <ele>1957</ele>
        <time>2014-07-15T09:11:51+02:00</time>
      </trkpt>
      <trkpt lat="44.76243" lon="7.0013">
        <ele>1970</ele>
        <time>2014-07-15T09:11:56+02:00</time>
      </trkpt>
      <trkpt lat="44.76256" lon="7.0014">
        <ele>1974</ele>
        <time>2014-07-15T09:12:01+02:00</time>
      </trkpt>
      <trkpt lat="44.7627" lon="7.0015">
        <ele>1977</ele>
        <time>2014-07-15T09:12:06+02:00</time>
      </trkpt>
      <trkpt lat="44.76273" lon="7.00179">
        <ele>1985</ele>
        <time>2014-07-15T09:12:11+02:00</time>
      </trkpt>
      <trkpt lat="44.76266" lon="7.00208">
        <ele>1993</ele>
        <time>2014-07-15T09:12:16+02:00</time>
      </trkpt>
      <trkpt lat="44.7627" lon="7.00237">
        <ele>1999</ele>
        <time>2014-07-15T09:12:21+02:00</time>
      </trkpt>
      <trkpt lat="44.7625" lon="7.00252">
        <ele>2004</ele>
        <time>2014-07-15T09:12:26+02:00</time>
      </trkpt>
      <trkpt lat="44.76268" lon="7.00318">
        <ele>2014</ele>
        <time>2014-07-15T09:12:31+02:00</time>
      </trkpt>
      <trkpt lat="44.76286" lon="7.00367">
        <ele>2019</ele>
        <time>2014-07-15T09:12:36+02:00</time>
      </trkpt>
      <trkpt lat="44.76323" lon="7.00393">
        <ele>2020</ele>
        <time>2014-07-15T09:12:41+02:00</time>
      </trkpt>
      <trkpt lat="44.7636" lon="7.00382">
        <ele>2016</ele>
        <time>2014-07-15T09:12:46+02:00</time>
      </trkpt>
      <trkpt lat="44.76399" lon="7.00346">
        <ele>2012</ele>
        <time>2014-07-15T09:12:51+02:00</time>
      </trkpt>
      <trkpt lat="44.76422" lon="7.00312">
        <ele>2007</ele>
        <time>2014-07-15T09:12:56+02:00</time>
      </trkpt>
      <trkpt lat="44.76446" lon="7.0031">
        <ele>2010</ele>
        <time>2014-07-15T09:13:01+02:00</time>
      </trkpt>
      <trkpt lat="44.76468" lon="7.00372">
        <ele>2034</ele>
        <time>2014-07-15T09:13:06+02:00</time>
      </trkpt>
      <trkpt lat="44.76484" lon="7.00394">
        <ele>2045</ele>
        <time>2014-07-15T09:13:11+02:00</time>
      </trkpt>
      <trkpt lat="44.76494" lon="7.00482">
        <ele>2076</ele>
        <time>2014-07-15T09:13:16+02:00</time>
      </trkpt>
      <trkpt lat="44.76521" lon="7.00535">
        <ele>2089</ele>
        <time>2014-07-15T09:13:21+02:00</time>
      </trkpt>
      <trkpt lat="44.76521" lon="7.00579">
        <ele>2101</ele>
        <time>2014-07-15T09:13:26+02:00</time>
      </trkpt>
      <trkpt lat="44.76534" lon="7.00613">
        <ele>2108</ele>
        <time>2014-07-15T09:13:31+02:00</time>
      </trkpt>
      <trkpt lat="44.76552" lon="7.0068">
        <ele>2118</ele>
        <time>2014-07-15T09:13:36+02:00</time>
      </trkpt>
      <trkpt lat="44.76566" lon="7.00712">
        <ele>2118</ele>
        <time>2014-07-15T09:13:41+02:00</time>
      </trkpt>
      <trkpt lat="44.76577" lon="7.00799">
        <ele>2133</ele>
        <time>2014-07-15T09:13:46+02:00</time>
      </trkpt>
      <trkpt lat="44.76582" lon="7.00878">
        <ele>2149</ele>
        <time>2014-07-15T09:13:51+02:00</time>
      </trkpt>
      <trkpt lat="44.76576" lon="7.00909">
        <ele>2157</ele>
        <time>2014-07-15T09:13:56+02:00</time>
      </trkpt>
      <trkpt lat="44.76593" lon="7.00932">
        <ele>2153</ele>
        <time>2014-07-15T09:14:01+02:00</time>
      </trkpt>
      <trkpt lat="44.7658" lon="7.00971">
        <ele>2166</ele>
        <time>2014-07-15T09:14:06+02:00</time>
      </trkpt>
      <trkpt lat="44.76585" lon="7.00994">
        <ele>2165</ele>
        <time>2014-07-15T09:14:11+02:00</time>
      </trkpt>
      <trkpt lat="44.7657" lon="7.01021">
        <ele>2176</ele>
        <time>2014-07-15T09:14:16+02:00</time>
      </trkpt>
      <trkpt lat="44.76575" lon="7.01068">
        <ele>2176</ele>
        <time>2014-07-15T09:14:21+02:00</time>
      </trkpt>
      <trkpt lat="44.7655" lon="7.01133">
        <ele>2192</ele>
        <time>2014-07-15T09:14:26+02:00</time>
      </trkpt>
      <trkpt lat="44.76548" lon="7.01186">
        <ele>2190</ele>
        <time>2014-07-15T09:14:31+02:00</time>
      </trkpt>
      <trkpt lat="44.76528" lon="7.01222">
        <ele>2201</ele>
        <time>2014-07-15T09:14:36+02:00</time>
      </trkpt>
      <trkpt lat="44.76499" lon="7.01311">
        <ele>2218</ele>
        <time>2014-07-15T09:14:41+02:00</time>
      </trkpt>
      <trkpt lat="44.76494" lon="7.01351">
        <ele>2219</ele>
        <time>2014-07-15T09:14:46+02:00</time>
      </trkpt>
      <trkpt lat="44.76478" lon="7.01388">
        <ele>2225</ele>
        <time>2014-07-15T09:14:51+02:00</time>
      </trkpt>
      <trkpt lat="44.76463" lon="7.01408">
        <ele>2231</ele>
        <time>2014-07-15T09:14:56+02:00</time>
      </trkpt>
      <trkpt lat="44.76467" lon="7.01432">
        <ele>2227</ele>
        <time>2014-07-15T09:15:01+02:00</time>
      </trkpt>
      <trkpt lat="44.76451" lon="7.01447">
        <ele>2235</ele>
        <time>2014-07-15T09:15:06+02:00</time>
      </trkpt>
      <trkpt lat="44.76449" lon="7.01476">
        <ele>2234</ele>
        <time>2014-07-15T09:15:11+02:00</time>
      </trkpt>
      <trkpt lat="44.76433" lon="7.01505">
        <ele>2241</ele>
        <time>2014-07-15T09:15:16+02:00</time>
      </trkpt>
      <trkpt lat="44.76438" lon="7.01513">
        <ele>2237</ele>
        <time>2014-07-15T09:15:21+02:00</time>
      </trkpt>
      <trkpt lat="44.76417" lon="7.01544">
        <ele>2245</ele>
        <time>2014-07-15T09:15:26+02:00</time>
      </trkpt>
      <trkpt lat="44.76413" lon="7.01573">
        <ele>2243</ele>
        <time>2014-07-15T09:15:31+02:00</time>
      </trkpt>
      <trkpt lat="44.76401" lon="7.01613">
        <ele>2243</ele>
        <time>2014-07-15T09:15:36+02:00</time>
      </trkpt>
      <trkpt lat="44.76363" lon="7.0168">
        <ele>2254</ele>
        <time>2014-07-15T09:15:41+02:00</time>
      </trkpt>
      <trkpt lat="44.76359" lon="7.01736">
        <ele>2251</ele>
        <time>2014-07-15T09:15:46+02:00</time>
      </trkpt>
      <trkpt lat="44.76332" lon="7.01805">
        <ele>2258</ele>
        <time>2014-07-15T09:15:51+02:00</time>
      </trkpt>
      <trkpt lat="44.763" lon="7.01824">
        <ele>2268</ele>
        <time>2014-07-15T09:15:56+02:00</time>
      </trkpt>
      <trkpt lat="44.76262" lon="7.01845">
        <ele>2283</ele>
        <time>2014-07-15T09:16:01+02:00</time>
      </trkpt>
      <trkpt lat="44.76239" lon="7.019">
        <ele>2287</ele>
        <time>2014-07-15T09:16:06+02:00</time>
      </trkpt>
      <trkpt lat="44.76246" lon="7.01982">
        <ele>2280</ele>
        <time>2014-07-15T09:16:11+02:00</time>
      </trkpt>
      <trkpt lat="44.76266" lon="7.02034">
        <ele>2277</ele>
        <time>2014-07-15T09:16:16+02:00</time>
      </trkpt>
      <trkpt lat="44.76318" lon="7.0208">
        <ele>2278</ele>
        <time>2014-07-15T09:16:21+02:00</time>
      </trkpt>
      <trkpt lat="44.76321" lon="7.02117">
        <ele>2285</ele>
        <time>2014-07-15T09:16:26+02:00</time>
      </trkpt>
      <trkpt lat="44.76354" lon="7.02185">
        <ele>2296</ele>
        <time>2014-07-15T09:16:31+02:00</time>
      </trkpt>
      <trkpt lat="44.76398" lon="7.02242">
        <ele>2307</ele>
        <time>2014-07-15T09:16:36+02:00</time>
      </trkpt>
      <trkpt lat="44.76456" lon="7.02332">
        <ele>2313</ele>
        <time>2014-07-15T09:16:41+02:00</time>
      </trkpt>
      <trkpt lat="44.76522" lon="7.02379">
        <ele>2312</ele>
        <time>2014-07-15T09:16:46+02:00</time>
      </trkpt>
      <trkpt lat="44.76588" lon="7.02457">
        <ele>2283</ele>
        <time>2014-07-15T09:16:51+02:00</time>
      </trkpt>
      <trkpt lat="44.76625" lon="7.02512">
        <ele>2267</ele>
        <time>2014-07-15T09:16:56+02:00</time>
      </trkpt>
      <trkpt lat="44.76651" lon="7.0252">
        <ele>2270</ele>
        <time>2014-07-15T09:17:01+02:00</time>
      </trkpt>
      <trkpt lat="44.76718" lon="7.02627">
        <ele>2240</ele>
        <time>2014-07-15T09:17:06+02:00</time>
      </trkpt>
      <trkpt lat="44.7678" lon="7.02789">
        <ele>2184</ele>
        <time>2014-07-15T09:17:11+02:00</time>
      </trkpt>
      <trkpt lat="44.76841" lon="7.03014">
        <ele>2130</ele>
        <time>2014-07-15T09:17:16+02:00</time>
      </trkpt>
      <trkpt lat="44.76869" lon="7.02975">
        <ele>2156</ele>
        <time>2014-07-15T09:17:21+02:00</time>
      </trkpt>
      <trkpt lat="44.76873" lon="7.03078">
        <ele>2129</ele>
        <time>2014-07-15T09:17:26+02:00</time>
      </trkpt>
      <trkpt lat="44.76906" lon="7.02996">
        <ele>2155</ele>
        <time>2014-07-15T09:17:31+02:00</time>
      </trkpt>
      <trkpt lat="44.76912" lon="7.03067">
        <ele>2139</ele>
        <time>2014-07-15T09:17:36+02:00</time>
      </trkpt>
      <trkpt lat="44.76955" lon="7.03006">
        <ele>2154</ele>
        <time>2014-07-15T09:17:41+02:00</time>
      </trkpt>
      <trkpt lat="44.76943" lon="7.03126">
        <ele>2129</ele>
        <time>2014-07-15T09:17:46+02:00</time>
      </trkpt>
      <trkpt lat="44.7698" lon="7.03051">
        <ele>2137</ele>
        <time>2014-07-15T09:17:51+02:00</time>
      </trkpt>
      <trkpt lat="44.76994" lon="7.03171">
        <ele>2096</ele>
        <time>2014-07-15T09:17:56+02:00</time>
      </trkpt>
      <trkpt lat="44.77019" lon="7.03104">
        <ele>2111</ele>
        <time>2014-07-15T09:18:01+02:00</time>
      </trkpt>
      <trkpt lat="44.77036" lon="7.03163">
        <ele>2089</ele>
        <time>2014-07-15T09:18:06+02:00</time>
      </trkpt>
      <trkpt lat="44.77062" lon="7.03116">
        <ele>2088</ele>
        <time>2014-07-15T09:18:11+02:00</time>
      </trkpt>
      <trkpt lat="44.77046" lon="7.03221">
        <ele>2059</ele>
        <time>2014-07-15T09:18:16+02:00</time>
      </trkpt>
      <trkpt lat="44.77077" lon="7.03189">
        <ele>2057</ele>
        <time>2014-07-15T09:18:21+02:00</time>
      </trkpt>
      <trkpt lat="44.7707" lon="7.03274">
        <ele>2007</ele>
        <time>2014-07-15T09:18:26+02:00</time>
      </trkpt>
      <trkpt lat="44.77112" lon="7.03205">
        <ele>2031</ele>
        <time>2014-07-15T09:18:31+02:00</time>
      </trkpt>
      <trkpt lat="44.77141" lon="7.032">
        <ele>2015</ele>
        <time>2014-07-15T09:18:36+02:00</time>
      </trkpt>
      <trkpt lat="44.77191" lon="7.03274">
        <ele>1960</ele>
        <time>2014-07-15T09:18:41+02:00</time>
      </trkpt>
      <trkpt lat="44.77251" lon="7.0332">
        <ele>1928</ele>
        <time>2014-07-15T09:18:46+02:00</time>
      </trkpt>
      <trkpt lat="44.77199" lon="7.03354">
        <ele>1923</ele>
        <time>2014-07-15T09:18:51+02:00</time>
      </trkpt>
      <trkpt lat="44.77236" lon="7.0338">
        <ele>1907</ele>
        <time>2014-07-15T09:18:56+02:00</time>
      </trkpt>
      <trkpt lat="44.77179" lon="7.03438">
        <ele>1881</ele>
        <time>2014-07-15T09:19:01+02:00</time>
      </trkpt>
      <trkpt lat="44.77213" lon="7.03486">
        <ele>1864</ele>
        <time>2014-07-15T09:19:06+02:00</time>
      </trkpt>
      <trkpt lat="44.77166" lon="7.03508">
        <ele>1851</ele>
        <time>2014-07-15T09:19:11+02:00</time>
      </trkpt>
      <trkpt lat="44.7722" lon="7.03563">
        <ele>1840</ele>
        <time>2014-07-15T09:19:16+02:00</time>
      </trkpt>
      <trkpt lat="44.77193" lon="7.0359">
        <ele>1823</ele>
        <time>2014-07-15T09:19:21+02:00</time>
      </trkpt>
      <trkpt lat="44.7722" lon="7.03614">
        <ele>1820</ele>
        <time>2014-07-15T09:19:26+02:00</time>
      </trkpt>
      <trkpt lat="44.77177" lon="7.03647">
        <ele>1787</ele>
        <time>2014-07-15T09:19:31+02:00</time>
      </trkpt>
      <trkpt lat="44.77214" lon="7.03682">
        <ele>1783</ele>
        <time>2014-07-15T09:19:36+02:00</time>
      </trkpt>
      <trkpt lat="44.77145" lon="7.03692">
        <ele>1749</ele>
        <time>2014-07-15T09:19:41+02:00</time>
      </trkpt>
      <trkpt lat="44.77209" lon="7.03728">
        <ele>1759</ele>
        <time>2014-07-15T09:19:46+02:00</time>
      </trkpt>
      <trkpt lat="44.77232" lon="7.03751">
        <ele>1753</ele>
        <time>2014-07-15T09:19:51+02:00</time>
      </trkpt>
      <trkpt lat="44.77254" lon="7.03806">
        <ele>1738</ele>
        <time>2014-07-15T09:19:56+02:00</time>
      </trkpt>
      <trkpt lat="44.7728" lon="7.03847">
        <ele>1736</ele>
        <time>2014-07-15T09:20:01+02:00</time>
      </trkpt>
      <trkpt lat="44.77328" lon="7.03891">
        <ele>1736</ele>
        <time>2014-07-15T09:20:06+02:00</time>
      </trkpt>
      <trkpt lat="44.77337" lon="7.03966">
        <ele>1732</ele>
        <time>2014-07-15T09:20:11+02:00</time>
      </trkpt>
      <trkpt lat="44.77351" lon="7.03956">
        <ele>1734</ele>
        <time>2014-07-15T09:20:16+02:00</time>
      </trkpt>
      <trkpt lat="44.77293" lon="7.03862">
        <ele>1736</ele>
        <time>2014-07-15T09:20:21+02:00</time>
      </trkpt>
      <trkpt lat="44.77272" lon="7.03856">
        <ele>1734</ele>
        <time>2014-07-15T09:20:26+02:00</time>
      </trkpt>
      <trkpt lat="44.77239" lon="7.03899">
        <ele>1728</ele>
        <time>2014-07-15T09:20:31+02:00</time>
      </trkpt>
      <trkpt lat="44.77175" lon="7.03862">
        <ele>1726</ele>
        <time>2014-07-15T09:20:36+02:00</time>
      </trkpt>
      <trkpt lat="44.77132" lon="7.03889">
        <ele>1723</ele>
        <time>2014-07-15T09:20:41+02:00</time>
      </trkpt>
      <trkpt lat="44.77028" lon="7.03809">
        <ele>1721</ele>
        <time>2014-07-15T09:20:46+02:00</time>
      </trkpt>
      <trkpt lat="44.7692" lon="7.0383">
        <ele>1716</ele>
        <time>2014-07-15T09:20:51+02:00</time>
      </trkpt>
      <trkpt lat="44.76755" lon="7.03852">
        <ele>1712</ele>
        <time>2014-07-15T09:20:56+02:00</time>
      </trkpt>
      <trkpt lat="44.76565" lon="7.03814">
        <ele>1715</ele>
        <time>2014-07-15T09:21:01+02:00</time>
      </trkpt>
      <trkpt lat="44.76406" lon="7.0383">
        <ele>1723</ele>
        <time>2014-07-15T09:21:06+02:00</time>
      </trkpt>
      <trkpt lat="44.76284" lon="7.03877">
        <ele>1723</ele>
        <time>2014-07-15T09:21:11+02:00</time>
      </trkpt>
      <trkpt lat="44.76039" lon="7.03809">
        <ele>1729</ele>
        <time>2014-07-15T09:21:16+02:00</time>
      </trkpt>
      <trkpt lat="44.75846" lon="7.03761">
        <ele>1737</ele>
        <time>2014-07-15T09:21:21+02:00</time>
      </trkpt>
      <trkpt lat="44.7563" lon="7.03861">
        <ele>1755</ele>
        <time>2014-07-15T09:21:26+02:00</time>
      </trkpt>
      <trkpt lat="44.75493" lon="7.03939">
        <ele>1745</ele>
        <time>2014-07-15T09:21:31+02:00</time>
      </trkpt>
      <trkpt lat="44.75368" lon="7.0394">
        <ele>1744</ele>
        <time>2014-07-15T09:21:36+02:00</time>
      </trkpt>
      <trkpt lat="44.7525" lon="7.03882">
        <ele>1751</ele>
        <time>2014-07-15T09:21:41+02:00</time>
      </trkpt>
      <trkpt lat="44.7516" lon="7.03872">
        <ele>1763</ele>
        <time>2014-07-15T09:21:46+02:00</time>
      </trkpt>
      <trkpt lat="44.75048" lon="7.03913">
        <ele>1775</ele>
        <time>2014-07-15T09:21:51+02:00</time>
      </trkpt>
      <trkpt lat="44.74962" lon="7.03862">
        <ele>1802</ele>
        <time>2014-07-15T09:21:56+02:00</time>
      </trkpt>
      <trkpt lat="44.74901" lon="7.03882">
        <ele>1805</ele>
        <time>2014-07-15T09:22:01+02:00</time>
      </trkpt>
      <trkpt lat="44.74837" lon="7.03809">
        <ele>1841</ele>
        <time>2014-07-15T09:22:06+02:00</time>
      </trkpt>
      <trkpt lat="44.74779" lon="7.03788">
        <ele>1865</ele>
        <time>2014-07-15T09:22:11+02:00</time>
      </trkpt>
      <trkpt lat="44.74808" lon="7.0373">
        <ele>1883</ele>
        <time>2014-07-15T09:22:16+02:00</time>
      </trkpt>
      <trkpt lat="44.74721" lon="7.03772">
        <ele>1888</ele>
        <time>2014-07-15T09:22:21+02:00</time>
      </trkpt>
      <trkpt lat="44.74754" lon="7.03672">
        <ele>1932</ele>
        <time>2014-07-15T09:22:26+02:00</time>
      </trkpt>
      <trkpt lat="44.74668" lon="7.03668">
        <ele>1962</ele>
        <time>2014-07-15T09:22:31+02:00</time>
      </trkpt>
      <trkpt lat="44.74624" lon="7.03714">
        <ele>1949</ele>
        <time>2014-07-15T09:22:36+02:00</time>
      </trkpt>
      <trkpt lat="44.74571" lon="7.03683">
        <ele>1983</ele>
        <time>2014-07-15T09:22:41+02:00</time>
      </trkpt>
      <trkpt lat="44.74473" lon="7.03709">
        <ele>1985</ele>
        <time>2014-07-15T09:22:46+02:00</time>
      </trkpt>
      <trkpt lat="44.74305" lon="7.03652">
        <ele>2044</ele>
        <time>2014-07-15T09:22:51+02:00</time>
      </trkpt>
      <trkpt lat="44.74208" lon="7.03678">
        <ele>2044</ele>
        <time>2014-07-15T09:22:56+02:00</time>
      </trkpt>
      <trkpt lat="44.74146" lon="7.03662">
        <ele>2060</ele>
        <time>2014-07-15T09:23:01+02:00</time>
      </trkpt>
      <trkpt lat="44.7401" lon="7.03703">
        <ele>2083</ele>
        <time>2014-07-15T09:23:06+02:00</time>
      </trkpt>
      <trkpt lat="44.73888" lon="7.03698">
        <ele>2106</ele>
        <time>2014-07-15T09:23:11+02:00</time>
      </trkpt>
      <trkpt lat="44.73758" lon="7.03762">
        <ele>2103</ele>
        <time>2014-07-15T09:23:16+02:00</time>
      </trkpt>
      <trkpt lat="44.73712" lon="7.03808">
        <ele>2102</ele>
        <time>2014-07-15T09:23:21+02:00</time>
      </trkpt>
      <trkpt lat="44.73597" lon="7.03961">
        <ele>2098</ele>
        <time>2014-07-15T09:23:26+02:00</time>
      </trkpt>
      <trkpt lat="44.73543" lon="7.04007">
        <ele>2100</ele>
        <time>2014-07-15T09:23:31+02:00</time>
      </trkpt>
      <trkpt lat="44.7345" lon="7.04023">
        <ele>2113</ele>
        <time>2014-07-15T09:23:36+02:00</time>
      </trkpt>
      <trkpt lat="44.73417" lon="7.04054">
        <ele>2123</ele>
        <time>2014-07-15T09:23:41+02:00</time>
      </trkpt>
      <trkpt lat="44.73357" lon="7.04012">
        <ele>2147</ele>
        <time>2014-07-15T09:23:46+02:00</time>
      </trkpt>
      <trkpt lat="44.73277" lon="7.04022">
        <ele>2179</ele>
        <time>2014-07-15T09:23:51+02:00</time>
      </trkpt>
      <trkpt lat="44.73231" lon="7.04044">
        <ele>2192</ele>
        <time>2014-07-15T09:23:56+02:00</time>
      </trkpt>
      <trkpt lat="44.73213" lon="7.0407">
        <ele>2201</ele>
        <time>2014-07-15T09:24:01+02:00</time>
      </trkpt>
      <trkpt lat="44.73148" lon="7.04059">
        <ele>2221</ele>
        <time>2014-07-15T09:24:06+02:00</time>
      </trkpt>
      <trkpt lat="44.72972" lon="7.0418">
        <ele>2291</ele>
        <time>2014-07-15T09:24:11+02:00</time>
      </trkpt>
      <trkpt lat="44.72896" lon="7.04195">
        <ele>2308</ele>
        <time>2014-07-15T09:24:16+02:00</time>
      </trkpt>
      <trkpt lat="44.7282" lon="7.04268">
        <ele>2331</ele>
        <time>2014-07-15T09:24:21+02:00</time>
      </trkpt>
      <trkpt lat="44.72785" lon="7.04378">
        <ele>2350</ele>
        <time>2014-07-15T09:24:26+02:00</time>
      </trkpt>
      <trkpt lat="44.72778" lon="7.04504">
        <ele>2366</ele>
        <time>2014-07-15T09:24:31+02:00</time>
      </trkpt>
      <trkpt lat="44.72752" lon="7.04561">
        <ele>2368</ele>
        <time>2014-07-15T09:24:36+02:00</time>
      </trkpt>
      <trkpt lat="44.72731" lon="7.04508">
        <ele>2362</ele>
        <time>2014-07-15T09:24:41+02:00</time>
      </trkpt>
      <trkpt lat="44.72745" lon="7.04462">
        <ele>2361</ele>
        <time>2014-07-15T09:24:46+02:00</time>
      </trkpt>
      <trkpt lat="44.72724" lon="7.04436">
        <ele>2359</ele>
        <time>2014-07-15T09:24:51+02:00</time>
      </trkpt>
      <trkpt lat="44.72692" lon="7.04436">
        <ele>2363</ele>
        <time>2014-07-15T09:24:56+02:00</time>
      </trkpt>
      <trkpt lat="44.72662" lon="7.04424">
        <ele>2370</ele>
        <time>2014-07-15T09:25:01+02:00</time>
      </trkpt>
      <trkpt lat="44.7263" lon="7.04446">
        <ele>2375</ele>
        <time>2014-07-15T09:25:06+02:00</time>
      </trkpt>
      <trkpt lat="44.7262" lon="7.04425">
        <ele>2382</ele>
        <time>2014-07-15T09:25:11+02:00</time>
      </trkpt>
      <trkpt lat="44.72601" lon="7.04436">
        <ele>2393</ele>
        <time>2014-07-15T09:25:16+02:00</time>
      </trkpt>
      <trkpt lat="44.72606" lon="7.04383">
        <ele>2395</ele>
        <time>2014-07-15T09:25:21+02:00</time>
      </trkpt>
      <trkpt lat="44.72566" lon="7.0432">
        <ele>2413</ele>
        <time>2014-07-15T09:25:26+02:00</time>
      </trkpt>
      <trkpt lat="44.72534" lon="7.04268">
        <ele>2428</ele>
        <time>2014-07-15T09:25:31+02:00</time>
      </trkpt>
      <trkpt lat="44.7254" lon="7.04304">
        <ele>2425</ele>
        <time>2014-07-15T09:25:36+02:00</time>
      </trkpt>
      <trkpt lat="44.72512" lon="7.04284">
        <ele>2437</ele>
        <time>2014-07-15T09:25:41+02:00</time>
      </trkpt>
      <trkpt lat="44.72526" lon="7.04321">
        <ele>2433</ele>
        <time>2014-07-15T09:25:46+02:00</time>
      </trkpt>
      <trkpt lat="44.72508" lon="7.04305">
        <ele>2439</ele>
        <time>2014-07-15T09:25:51+02:00</time>
      </trkpt>
      <trkpt lat="44.72533" lon="7.04351">
        <ele>2433</ele>
        <time>2014-07-15T09:25:56+02:00</time>
      </trkpt>
      <trkpt lat="44.72497" lon="7.04321">
        <ele>2445</ele>
        <time>2014-07-15T09:26:01+02:00</time>
      </trkpt>
      <trkpt lat="44.72512" lon="7.04362">
        <ele>2442</ele>
        <time>2014-07-15T09:26:06+02:00</time>
      </trkpt>
      <trkpt lat="44.72476" lon="7.04337">
        <ele>2454</ele>
        <time>2014-07-15T09:26:11+02:00</time>
      </trkpt>
      <trkpt lat="44.72501" lon="7.04399">
        <ele>2449</ele>
        <time>2014-07-15T09:26:16+02:00</time>
      </trkpt>
      <trkpt lat="44.72469" lon="7.04441">
        <ele>2467</ele>
        <time>2014-07-15T09:26:21+02:00</time>
      </trkpt>
      <trkpt lat="44.72461" lon="7.04472">
        <ele>2474</ele>
        <time>2014-07-15T09:26:26+02:00</time>
      </trkpt>
      <trkpt lat="44.72404" lon="7.04477">
        <ele>2495</ele>
        <time>2014-07-15T09:26:31+02:00</time>
      </trkpt>
      <trkpt lat="44.72425" lon="7.04514">
        <ele>2492</ele>
        <time>2014-07-15T09:26:36+02:00</time>
      </trkpt>
      <trkpt lat="44.724" lon="7.04487">
        <ele>2498</ele>
        <time>2014-07-15T09:26:41+02:00</time>
      </trkpt>
      <trkpt lat="44.72404" lon="7.04514">
        <ele>2500</ele>
        <time>2014-07-15T09:26:46+02:00</time>
      </trkpt>
      <trkpt lat="44.72382" lon="7.04508">
        <ele>2508</ele>
        <time>2014-07-15T09:26:51+02:00</time>
      </trkpt>
      <trkpt lat="44.7234" lon="7.04535">
        <ele>2521</ele>
        <time>2014-07-15T09:26:56+02:00</time>
      </trkpt>
      <trkpt lat="44.72307" lon="7.04525">
        <ele>2526</ele>
        <time>2014-07-15T09:27:01+02:00</time>
      </trkpt>
      <trkpt lat="44.72264" lon="7.0456">
        <ele>2542</ele>
        <time>2014-07-15T09:27:06+02:00</time>
      </trkpt>
      <trkpt lat="44.723" lon="7.04582">
        <ele>2539</ele>
        <time>2014-07-15T09:27:11+02:00</time>
      </trkpt>
      <trkpt lat="44.72224" lon="7.04624">
        <ele>2561</ele>
        <time>2014-07-15T09:27:16+02:00</time>
      </trkpt>
      <trkpt lat="44.72188" lon="7.04633">
        <ele>2571</ele>
        <time>2014-07-15T09:27:21+02:00</time>
      </trkpt>
      <trkpt lat="44.72077" lon="7.04728">
        <ele>2628</ele>
        <time>2014-07-15T09:27:26+02:00</time>
      </trkpt>
      <trkpt lat="44.72034" lon="7.04701">
        <ele>2642</ele>
        <time>2014-07-15T09:27:31+02:00</time>
      </trkpt>
      <trkpt lat="44.72045" lon="7.04733">
        <ele>2641</ele>
        <time>2014-07-15T09:27:36+02:00</time>
      </trkpt>
      <trkpt lat="44.72027" lon="7.04749">
        <ele>2650</ele>
        <time>2014-07-15T09:27:41+02:00</time>
      </trkpt>
      <trkpt lat="44.72045" lon="7.04775">
        <ele>2646</ele>
        <time>2014-07-15T09:27:46+02:00</time>
      </trkpt>
      <trkpt lat="44.71926" lon="7.04843">
        <ele>2710</ele>
        <time>2014-07-15T09:27:51+02:00</time>
      </trkpt>
      <trkpt lat="44.71739" lon="7.04968">
        <ele>2808</ele>
        <time>2014-07-15T09:27:56+02:00</time>
      </trkpt>
      <trkpt lat="44.7179" lon="7.05004">
        <ele>2787</ele>
        <time>2014-07-15T09:28:01+02:00</time>
      </trkpt>
      <trkpt lat="44.71714" lon="7.05036">
        <ele>2822</ele>
        <time>2014-07-15T09:28:06+02:00</time>
      </trkpt>
      <trkpt lat="44.71663" lon="7.0503">
        <ele>2819</ele>
        <time>2014-07-15T09:28:11+02:00</time>
      </trkpt>
      <trkpt lat="44.71642" lon="7.05004">
        <ele>2812</ele>
        <time>2014-07-15T09:28:16+02:00</time>
      </trkpt>
      <trkpt lat="44.71635" lon="7.04937">
        <ele>2797</ele>
        <time>2014-07-15T09:28:21+02:00</time>
      </trkpt>
      <trkpt lat="44.71621" lon="7.04947">
        <ele>2793</ele>
        <time>2014-07-15T09:28:26+02:00</time>
      </trkpt>
      <trkpt lat="44.71614" lon="7.04905">
        <ele>2783</ele>
        <time>2014-07-15T09:28:31+02:00</time>
      </trkpt>
      <trkpt lat="44.7157" lon="7.04953">
        <ele>2771</ele>
        <time>2014-07-15T09:28:36+02:00</time>
      </trkpt>
      <trkpt lat="44.71552" lon="7.04931">
        <ele>2758</ele>
        <time>2014-07-15T09:28:41+02:00</time>
      </trkpt>
      <trkpt lat="44.71527" lon="7.04963">
        <ele>2754</ele>
        <time>2014-07-15T09:28:46+02:00</time>
      </trkpt>
      <trkpt lat="44.71495" lon="7.04926">
        <ele>2733</ele>
        <time>2014-07-15T09:28:51+02:00</time>
      </trkpt>
      <trkpt lat="44.71499" lon="7.04879">
        <ele>2724</ele>
        <time>2014-07-15T09:28:56+02:00</time>
      </trkpt>
      <trkpt lat="44.71513" lon="7.04753">
        <ele>2702</ele>
        <time>2014-07-15T09:29:01+02:00</time>
      </trkpt>
      <trkpt lat="44.71481" lon="7.0477">
        <ele>2694</ele>
        <time>2014-07-15T09:29:06+02:00</time>
      </trkpt>
      <trkpt lat="44.7148" lon="7.04738">
        <ele>2686</ele>
        <time>2014-07-15T09:29:11+02:00</time>
      </trkpt>
      <trkpt lat="44.71402" lon="7.04806">
        <ele>2675</ele>
        <time>2014-07-15T09:29:16+02:00</time>
      </trkpt>
      <trkpt lat="44.71348" lon="7.048">
        <ele>2655</ele>
        <time>2014-07-15T09:29:21+02:00</time>
      </trkpt>
      <trkpt lat="44.71316" lon="7.04775">
        <ele>2638</ele>
        <time>2014-07-15T09:29:26+02:00</time>
      </trkpt>
      <trkpt lat="44.71265" lon="7.04801">
        <ele>2620</ele>
        <time>2014-07-15T09:29:31+02:00</time>
      </trkpt>
      <trkpt lat="44.71255" lon="7.04728">
        <ele>2604</ele>
        <time>2014-07-15T09:29:36+02:00</time>
      </trkpt>
      <trkpt lat="44.71254" lon="7.0466">
        <ele>2589</ele>
        <time>2014-07-15T09:29:41+02:00</time>
      </trkpt>
      <trkpt lat="44.71283" lon="7.04571">
        <ele>2583</ele>
        <time>2014-07-15T09:29:46+02:00</time>
      </trkpt>
      <trkpt lat="44.71283" lon="7.04529">
        <ele>2574</ele>
        <time>2014-07-15T09:29:51+02:00</time>
      </trkpt>
      <trkpt lat="44.712" lon="7.04592">
        <ele>2551</ele>
        <time>2014-07-15T09:29:56+02:00</time>
      </trkpt>
      <trkpt lat="44.71143" lon="7.04706">
        <ele>2545</ele>
        <time>2014-07-15T09:30:01+02:00</time>
      </trkpt>
      <trkpt lat="44.71104" lon="7.04758">
        <ele>2531</ele>
        <time>2014-07-15T09:30:06+02:00</time>
      </trkpt>
      <trkpt lat="44.71103" lon="7.04826">
        <ele>2537</ele>
        <time>2014-07-15T09:30:11+02:00</time>
      </trkpt>
      <trkpt lat="44.71099" lon="7.04884">
        <ele>2539</ele>
        <time>2014-07-15T09:30:16+02:00</time>
      </trkpt>
      <trkpt lat="44.71046" lon="7.0491">
        <ele>2517</ele>
        <time>2014-07-15T09:30:21+02:00</time>
      </trkpt>
      <trkpt lat="44.70956" lon="7.04947">
        <ele>2486</ele>
        <time>2014-07-15T09:30:26+02:00</time>
      </trkpt>
      <trkpt lat="44.70881" lon="7.04983">
        <ele>2470</ele>
        <time>2014-07-15T09:30:31+02:00</time>
      </trkpt>
      <trkpt lat="44.70833" lon="7.04968">
        <ele>2460</ele>
        <time>2014-07-15T09:30:36+02:00</time>
      </trkpt>
      <trkpt lat="44.70819" lon="7.04926">
        <ele>2455</ele>
        <time>2014-07-15T09:30:41+02:00</time>
      </trkpt>
      <trkpt lat="44.70802" lon="7.04889">
        <ele>2450</ele>
        <time>2014-07-15T09:30:46+02:00</time>
      </trkpt>
      <trkpt lat="44.70744" lon="7.04926">
        <ele>2445</ele>
        <time>2014-07-15T09:30:51+02:00</time>
      </trkpt>
      <trkpt lat="44.70712" lon="7.04951">
        <ele>2446</ele>
        <time>2014-07-15T09:30:56+02:00</time>
      </trkpt>
      <trkpt lat="44.70665" lon="7.04988">
        <ele>2449</ele>
        <time>2014-07-15T09:31:01+02:00</time>
      </trkpt>
      <trkpt lat="44.70618" lon="7.04983">
        <ele>2445</ele>
        <time>2014-07-15T09:31:06+02:00</time>
      </trkpt>
      <trkpt lat="44.70589" lon="7.04946">
        <ele>2433</ele>
        <time>2014-07-15T09:31:11+02:00</time>
      </trkpt>
      <trkpt lat="44.70535" lon="7.04988">
        <ele>2436</ele>
        <time>2014-07-15T09:31:16+02:00</time>
      </trkpt>
      <trkpt lat="44.70457" lon="7.05035">
        <ele>2439</ele>
        <time>2014-07-15T09:31:21+02:00</time>
      </trkpt>
      <trkpt lat="44.70417" lon="7.05057">
        <ele>2438</ele>
        <time>2014-07-15T09:31:26+02:00</time>
      </trkpt>
      <trkpt lat="44.70378" lon="7.05114">
        <ele>2448</ele>
        <time>2014-07-15T09:31:31+02:00</time>
      </trkpt>
      <trkpt lat="44.70335" lon="7.05129">
        <ele>2451</ele>
        <time>2014-07-15T09:31:36+02:00</time>
      </trkpt>
      <trkpt lat="44.70313" lon="7.05155">
        <ele>2455</ele>
        <time>2014-07-15T09:31:41+02:00</time>
      </trkpt>
      <trkpt lat="44.70284" lon="7.0514">
        <ele>2451</ele>
        <time>2014-07-15T09:31:46+02:00</time>
      </trkpt>
      <trkpt lat="44.70263" lon="7.0515">
        <ele>2453</ele>
        <time>2014-07-15T09:31:51+02:00</time>
      </trkpt>
      <trkpt lat="44.70227" lon="7.05187">
        <ele>2459</ele>
        <time>2014-07-15T09:31:56+02:00</time>
      </trkpt>
      <trkpt lat="44.70172" lon="7.05171">
        <ele>2458</ele>
        <time>2014-07-15T09:32:01+02:00</time>
      </trkpt>
      <trkpt lat="44.70122" lon="7.05151">
        <ele>2459</ele>
        <time>2014-07-15T09:32:06+02:00</time>
      </trkpt>
      <trkpt lat="44.70115" lon="7.05182">
        <ele>2462</ele>
        <time>2014-07-15T09:32:11+02:00</time>
      </trkpt>
      <trkpt lat="44.70051" lon="7.05135">
        <ele>2449</ele>
        <time>2014-07-15T09:32:16+02:00</time>
      </trkpt>
      <trkpt lat="44.70029" lon="7.05104">
        <ele>2437</ele>
        <time>2014-07-15T09:32:21+02:00</time>
      </trkpt>
      <trkpt lat="44.70054" lon="7.05118">
        <ele>2446</ele>
        <time>2014-07-15T09:32:26+02:00</time>
      </trkpt>
      <trkpt lat="44.70101" lon="7.05165">
        <ele>2459</ele>
        <time>2014-07-15T09:32:31+02:00</time>
      </trkpt>
      <trkpt lat="44.70147" lon="7.05145">
        <ele>2457</ele>
        <time>2014-07-15T09:32:36+02:00</time>
      </trkpt>
      <trkpt lat="44.70183" lon="7.05187">
        <ele>2460</ele>
        <time>2014-07-15T09:32:41+02:00</time>
      </trkpt>
      <trkpt lat="44.7023" lon="7.05176">
        <ele>2457</ele>
        <time>2014-07-15T09:32:46+02:00</time>
      </trkpt>
      <trkpt lat="44.70263" lon="7.05166">
        <ele>2456</ele>
        <time>2014-07-15T09:32:51+02:00</time>
      </trkpt>
      <trkpt lat="44.70291" lon="7.05135">
        <ele>2451</ele>
        <time>2014-07-15T09:32:56+02:00</time>
      </trkpt>
      <trkpt lat="44.70323" lon="7.05145">
        <ele>2454</ele>
        <time>2014-07-15T09:33:01+02:00</time>
      </trkpt>
      <trkpt lat="44.70353" lon="7.05108">
        <ele>2446</ele>
        <time>2014-07-15T09:33:06+02:00</time>
      </trkpt>
      <trkpt lat="44.70377" lon="7.05098">
        <ele>2444</ele>
        <time>2014-07-15T09:33:11+02:00</time>
      </trkpt>
      <trkpt lat="44.70417" lon="7.05062">
        <ele>2440</ele>
        <time>2014-07-15T09:33:16+02:00</time>
      </trkpt>
      <trkpt lat="44.7046" lon="7.05062">
        <ele>2446</ele>
        <time>2014-07-15T09:33:21+02:00</time>
      </trkpt>
      <trkpt lat="44.70489" lon="7.0502">
        <ele>2439</ele>
        <time>2014-07-15T09:33:26+02:00</time>
      </trkpt>
      <trkpt lat="44.70521" lon="7.04988">
        <ele>2435</ele>
        <time>2014-07-15T09:33:31+02:00</time>
      </trkpt>
      <trkpt lat="44.70557" lon="7.04967">
        <ele>2433</ele>
        <time>2014-07-15T09:33:36+02:00</time>
      </trkpt>
      <trkpt lat="44.70597" lon="7.04937">
        <ele>2432</ele>
        <time>2014-07-15T09:33:41+02:00</time>
      </trkpt>
      <trkpt lat="44.70654" lon="7.04973">
        <ele>2446</ele>
        <time>2014-07-15T09:33:46+02:00</time>
      </trkpt>
      <trkpt lat="44.70705" lon="7.04962">
        <ele>2447</ele>
        <time>2014-07-15T09:33:51+02:00</time>
      </trkpt>
      <trkpt lat="44.70748" lon="7.0491">
        <ele>2444</ele>
        <time>2014-07-15T09:33:56+02:00</time>
      </trkpt>
      <trkpt lat="44.70812" lon="7.04899">
        <ele>2453</ele>
        <time>2014-07-15T09:34:01+02:00</time>
      </trkpt>
      <trkpt lat="44.70838" lon="7.04957">
        <ele>2460</ele>
        <time>2014-07-15T09:34:06+02:00</time>
      </trkpt>
      <trkpt lat="44.70801" lon="7.05041">
        <ele>2461</ele>
        <time>2014-07-15T09:34:11+02:00</time>
      </trkpt>
      <trkpt lat="44.70801" lon="7.05181">
        <ele>2491</ele>
        <time>2014-07-15T09:34:16+02:00</time>
      </trkpt>
      <trkpt lat="44.70805" lon="7.05235">
        <ele>2504</ele>
        <time>2014-07-15T09:34:21+02:00</time>
      </trkpt>
      <trkpt lat="44.70816" lon="7.05239">
        <ele>2506</ele>
        <time>2014-07-15T09:34:26+02:00</time>
      </trkpt>
      <trkpt lat="44.70804" lon="7.05265">
        <ele>2511</ele>
        <time>2014-07-15T09:34:31+02:00</time>
      </trkpt>
      <trkpt lat="44.70826" lon="7.05312">
        <ele>2522</ele>
        <time>2014-07-15T09:34:36+02:00</time>
      </trkpt>
      <trkpt lat="44.70826" lon="7.05386">
        <ele>2535</ele>
        <time>2014-07-15T09:34:41+02:00</time>
      </trkpt>
      <trkpt lat="44.70844" lon="7.05396">
        <ele>2536</ele>
        <time>2014-07-15T09:34:46+02:00</time>
      </trkpt>
      <trkpt lat="44.70905" lon="7.05401">
        <ele>2547</ele>
        <time>2014-07-15T09:34:51+02:00</time>
      </trkpt>
      <trkpt lat="44.70938" lon="7.05433">
        <ele>2557</ele>
        <time>2014-07-15T09:34:56+02:00</time>
      </trkpt>
      <trkpt lat="44.70948" lon="7.05522">
        <ele>2568</ele>
        <time>2014-07-15T09:35:01+02:00</time>
      </trkpt>
      <trkpt lat="44.7097" lon="7.05568">
        <ele>2581</ele>
        <time>2014-07-15T09:35:06+02:00</time>
      </trkpt>
      <trkpt lat="44.70944" lon="7.05553">
        <ele>2573</ele>
        <time>2014-07-15T09:35:11+02:00</time>
      </trkpt>
      <trkpt lat="44.70962" lon="7.05595">
        <ele>2590</ele>
        <time>2014-07-15T09:35:16+02:00</time>
      </trkpt>
      <trkpt lat="44.70926" lon="7.05595">
        <ele>2581</ele>
        <time>2014-07-15T09:35:21+02:00</time>
      </trkpt>
      <trkpt lat="44.7093" lon="7.05642">
        <ele>2596</ele>
        <time>2014-07-15T09:35:26+02:00</time>
      </trkpt>
      <trkpt lat="44.70938" lon="7.05668">
        <ele>2607</ele>
        <time>2014-07-15T09:35:31+02:00</time>
      </trkpt>
      <trkpt lat="44.70959" lon="7.05684">
        <ele>2618</ele>
        <time>2014-07-15T09:35:36+02:00</time>
      </trkpt>
      <trkpt lat="44.70984" lon="7.05736">
        <ele>2633</ele>
        <time>2014-07-15T09:35:41+02:00</time>
      </trkpt>
      <trkpt lat="44.71013" lon="7.05746">
        <ele>2637</ele>
        <time>2014-07-15T09:35:46+02:00</time>
      </trkpt>
      <trkpt lat="44.71024" lon="7.05767">
        <ele>2645</ele>
        <time>2014-07-15T09:35:51+02:00</time>
      </trkpt>
      <trkpt lat="44.71049" lon="7.05767">
        <ele>2649</ele>
        <time>2014-07-15T09:35:56+02:00</time>
      </trkpt>
      <trkpt lat="44.71113" lon="7.05846">
        <ele>2678</ele>
        <time>2014-07-15T09:36:01+02:00</time>
      </trkpt>
      <trkpt lat="44.71164" lon="7.05856">
        <ele>2694</ele>
        <time>2014-07-15T09:36:06+02:00</time>
      </trkpt>
      <trkpt lat="44.71214" lon="7.05825">
        <ele>2706</ele>
        <time>2014-07-15T09:36:11+02:00</time>
      </trkpt>
      <trkpt lat="44.71203" lon="7.05794">
        <ele>2696</ele>
        <time>2014-07-15T09:36:16+02:00</time>
      </trkpt>
      <trkpt lat="44.71254" lon="7.0582">
        <ele>2725</ele>
        <time>2014-07-15T09:36:21+02:00</time>
      </trkpt>
      <trkpt lat="44.71279" lon="7.05789">
        <ele>2736</ele>
        <time>2014-07-15T09:36:26+02:00</time>
      </trkpt>
      <trkpt lat="44.71304" lon="7.0581">
        <ele>2751</ele>
        <time>2014-07-15T09:36:31+02:00</time>
      </trkpt>
      <trkpt lat="44.71325" lon="7.05904">
        <ele>2765</ele>
        <time>2014-07-15T09:36:36+02:00</time>
      </trkpt>
      <trkpt lat="44.71361" lon="7.05987">
        <ele>2782</ele>
        <time>2014-07-15T09:36:41+02:00</time>
      </trkpt>
      <trkpt lat="44.7135" lon="7.06075">
        <ele>2790</ele>
        <time>2014-07-15T09:36:46+02:00</time>
      </trkpt>
      <trkpt lat="44.71347" lon="7.0615">
        <ele>2807</ele>
        <time>2014-07-15T09:36:51+02:00</time>
      </trkpt>
      <trkpt lat="44.71328" lon="7.06186">
        <ele>2808</ele>
        <time>2014-07-15T09:36:56+02:00</time>
      </trkpt>
      <trkpt lat="44.71332" lon="7.06253">
        <ele>2824</ele>
        <time>2014-07-15T09:37:01+02:00</time>
      </trkpt>
      <trkpt lat="44.71335" lon="7.0629">
        <ele>2833</ele>
        <time>2014-07-15T09:37:06+02:00</time>
      </trkpt>
      <trkpt lat="44.71339" lon="7.06347">
        <ele>2851</ele>
        <time>2014-07-15T09:37:11+02:00</time>
      </trkpt>
      <trkpt lat="44.71307" lon="7.0641">
        <ele>2850</ele>
        <time>2014-07-15T09:37:16+02:00</time>
      </trkpt>
      <trkpt lat="44.71296" lon="7.06457">
        <ele>2856</ele>
        <time>2014-07-15T09:37:21+02:00</time>
      </trkpt>
      <trkpt lat="44.71242" lon="7.065">
        <ele>2878</ele>
        <time>2014-07-15T09:37:26+02:00</time>
      </trkpt>
      <trkpt lat="44.7122" lon="7.06499">
        <ele>2876</ele>
        <time>2014-07-15T09:37:31+02:00</time>
      </trkpt>
      <trkpt lat="44.71224" lon="7.06515">
        <ele>2884</ele>
        <time>2014-07-15T09:37:36+02:00</time>
      </trkpt>
      <trkpt lat="44.71209" lon="7.06536">
        <ele>2892</ele>
        <time>2014-07-15T09:37:41+02:00</time>
      </trkpt>
      <trkpt lat="44.71209" lon="7.06561">
        <ele>2903</ele>
        <time>2014-07-15T09:37:46+02:00</time>
      </trkpt>
      <trkpt lat="44.71185" lon="7.06593">
        <ele>2923</ele>
        <time>2014-07-15T09:37:51+02:00</time>
      </trkpt>
      <trkpt lat="44.71134" lon="7.06578">
        <ele>2929</ele>
        <time>2014-07-15T09:37:56+02:00</time>
      </trkpt>
      <trkpt lat="44.71162" lon="7.06624">
        <ele>2939</ele>
        <time>2014-07-15T09:38:01+02:00</time>
      </trkpt>
      <trkpt lat="44.71123" lon="7.0662">
        <ele>2943</ele>
        <time>2014-07-15T09:38:06+02:00</time>
      </trkpt>
      <trkpt lat="44.71098" lon="7.0664">
        <ele>2947</ele>
        <time>2014-07-15T09:38:11+02:00</time>
      </trkpt>
      <trkpt lat="44.71088" lon="7.06666">
        <ele>2940</ele>
        <time>2014-07-15T09:38:16+02:00</time>
      </trkpt>
      <trkpt lat="44.71098" lon="7.06697">
        <ele>2926</ele>
        <time>2014-07-15T09:38:21+02:00</time>
      </trkpt>
      <trkpt lat="44.71126" lon="7.06729">
        <ele>2906</ele>
        <time>2014-07-15T09:38:26+02:00</time>
      </trkpt>
      <trkpt lat="44.7117" lon="7.06724">
        <ele>2914</ele>
        <time>2014-07-15T09:38:31+02:00</time>
      </trkpt>
      <trkpt lat="44.71198" lon="7.06755">
        <ele>2895</ele>
        <time>2014-07-15T09:38:36+02:00</time>
      </trkpt>
      <trkpt lat="44.71213" lon="7.06728">
        <ele>2914</ele>
        <time>2014-07-15T09:38:41+02:00</time>
      </trkpt>
      <trkpt lat="44.71227" lon="7.06771">
        <ele>2886</ele>
        <time>2014-07-15T09:38:46+02:00</time>
      </trkpt>
      <trkpt lat="44.71249" lon="7.06781">
        <ele>2879</ele>
        <time>2014-07-15T09:38:51+02:00</time>
      </trkpt>
      <trkpt lat="44.71277" lon="7.06782">
        <ele>2878</ele>
        <time>2014-07-15T09:38:56+02:00</time>
      </trkpt>
      <trkpt lat="44.71271" lon="7.06813">
        <ele>2858</ele>
        <time>2014-07-15T09:39:01+02:00</time>
      </trkpt>
      <trkpt lat="44.71253" lon="7.06828">
        <ele>2844</ele>
        <time>2014-07-15T09:39:06+02:00</time>
      </trkpt>
      <trkpt lat="44.71278" lon="7.0686">
        <ele>2825</ele>
        <time>2014-07-15T09:39:11+02:00</time>
      </trkpt>
      <trkpt lat="44.71246" lon="7.06849">
        <ele>2826</ele>
        <time>2014-07-15T09:39:16+02:00</time>
      </trkpt>
      <trkpt lat="44.71277" lon="7.06886">
        <ele>2809</ele>
        <time>2014-07-15T09:39:21+02:00</time>
      </trkpt>
      <trkpt lat="44.71238" lon="7.06896">
        <ele>2792</ele>
        <time>2014-07-15T09:39:26+02:00</time>
      </trkpt>
      <trkpt lat="44.71249" lon="7.06922">
        <ele>2782</ele>
        <time>2014-07-15T09:39:31+02:00</time>
      </trkpt>
      <trkpt lat="44.71263" lon="7.07012">
        <ele>2750</ele>
        <time>2014-07-15T09:39:36+02:00</time>
      </trkpt>
      <trkpt lat="44.71227" lon="7.07043">
        <ele>2729</ele>
        <time>2014-07-15T09:39:41+02:00</time>
      </trkpt>
      <trkpt lat="44.71187" lon="7.07074">
        <ele>2717</ele>
        <time>2014-07-15T09:39:46+02:00</time>
      </trkpt>
      <trkpt lat="44.71159" lon="7.07147">
        <ele>2717</ele>
        <time>2014-07-15T09:39:51+02:00</time>
      </trkpt>
      <trkpt lat="44.71126" lon="7.07189">
        <ele>2716</ele>
        <time>2014-07-15T09:39:56+02:00</time>
      </trkpt>
      <trkpt lat="44.71083" lon="7.07236">
        <ele>2715</ele>
        <time>2014-07-15T09:40:01+02:00</time>
      </trkpt>
      <trkpt lat="44.71022" lon="7.07372">
        <ele>2705</ele>
        <time>2014-07-15T09:40:06+02:00</time>
      </trkpt>
      <trkpt lat="44.70964" lon="7.07419">
        <ele>2671</ele>
        <time>2014-07-15T09:40:11+02:00</time>
      </trkpt>
      <trkpt lat="44.7095" lon="7.07336">
        <ele>2683</ele>
        <time>2014-07-15T09:40:16+02:00</time>
      </trkpt>
      <trkpt lat="44.70922" lon="7.07387">
        <ele>2655</ele>
        <time>2014-07-15T09:40:21+02:00</time>
      </trkpt>
      <trkpt lat="44.709" lon="7.0732">
        <ele>2659</ele>
        <time>2014-07-15T09:40:26+02:00</time>
      </trkpt>
      <trkpt lat="44.70875" lon="7.07366">
        <ele>2638</ele>
        <time>2014-07-15T09:40:31+02:00</time>
      </trkpt>
      <trkpt lat="44.70782" lon="7.07309">
        <ele>2606</ele>
        <time>2014-07-15T09:40:36+02:00</time>
      </trkpt>
      <trkpt lat="44.70703" lon="7.07235">
        <ele>2620</ele>
        <time>2014-07-15T09:40:41+02:00</time>
      </trkpt>
      <trkpt lat="44.7058" lon="7.07241">
        <ele>2629</ele>
        <time>2014-07-15T09:40:46+02:00</time>
      </trkpt>
      <trkpt lat="44.70494" lon="7.07225">
        <ele>2700</ele>
        <time>2014-07-15T09:40:51+02:00</time>
      </trkpt>
      <trkpt lat="44.70461" lon="7.07256">
        <ele>2706</ele>
        <time>2014-07-15T09:40:56+02:00</time>
      </trkpt>
      <trkpt lat="44.70429" lon="7.07329">
        <ele>2693</ele>
        <time>2014-07-15T09:41:01+02:00</time>
      </trkpt>
      <trkpt lat="44.70387" lon="7.0734">
        <ele>2732</ele>
        <time>2014-07-15T09:41:06+02:00</time>
      </trkpt>
      <trkpt lat="44.70325" lon="7.07366">
        <ele>2764</ele>
        <time>2014-07-15T09:41:11+02:00</time>
      </trkpt>
      <trkpt lat="44.70253" lon="7.07397">
        <ele>2805</ele>
        <time>2014-07-15T09:41:16+02:00</time>
      </trkpt>
      <trkpt lat="44.70196" lon="7.0746">
        <ele>2804</ele>
        <time>2014-07-15T09:41:21+02:00</time>
      </trkpt>
      <trkpt lat="44.70121" lon="7.07533">
        <ele>2716</ele>
        <time>2014-07-15T09:41:26+02:00</time>
      </trkpt>
      <trkpt lat="44.70098" lon="7.07569">
        <ele>2679</ele>
        <time>2014-07-15T09:41:31+02:00</time>
      </trkpt>
      <trkpt lat="44.70063" lon="7.07554">
        <ele>2679</ele>
        <time>2014-07-15T09:41:36+02:00</time>
      </trkpt>
      <trkpt lat="44.70002" lon="7.07632">
        <ele>2667</ele>
        <time>2014-07-15T09:41:41+02:00</time>
      </trkpt>
      <trkpt lat="44.69944" lon="7.07705">
        <ele>2693</ele>
        <time>2014-07-15T09:41:46+02:00</time>
      </trkpt>
      <trkpt lat="44.699" lon="7.07664">
        <ele>2714</ele>
        <time>2014-07-15T09:41:51+02:00</time>
      </trkpt>
      <trkpt lat="44.69858" lon="7.07632">
        <ele>2727</ele>
        <time>2014-07-15T09:41:56+02:00</time>
      </trkpt>
      <trkpt lat="44.69811" lon="7.07606">
        <ele>2735</ele>
        <time>2014-07-15T09:42:01+02:00</time>
      </trkpt>
      <trkpt lat="44.69779" lon="7.07617">
        <ele>2739</ele>
        <time>2014-07-15T09:42:06+02:00</time>
      </trkpt>
      <trkpt lat="44.69768" lon="7.0759">
        <ele>2740</ele>
        <time>2014-07-15T09:42:11+02:00</time>
      </trkpt>
      <trkpt lat="44.6976" lon="7.07632">
        <ele>2740</ele>
        <time>2014-07-15T09:42:16+02:00</time>
      </trkpt>
      <trkpt lat="44.69728" lon="7.07585">
        <ele>2741</ele>
        <time>2014-07-15T09:42:21+02:00</time>
      </trkpt>
      <trkpt lat="44.69722" lon="7.07652">
        <ele>2744</ele>
        <time>2014-07-15T09:42:26+02:00</time>
      </trkpt>
      <trkpt lat="44.69696" lon="7.07616">
        <ele>2738</ele>
        <time>2014-07-15T09:42:31+02:00</time>
      </trkpt>
      <trkpt lat="44.69693" lon="7.07637">
        <ele>2738</ele>
        <time>2014-07-15T09:42:36+02:00</time>
      </trkpt>
      <trkpt lat="44.69657" lon="7.07568">
        <ele>2731</ele>
        <time>2014-07-15T09:42:41+02:00</time>
      </trkpt>
      <trkpt lat="44.69653" lon="7.07636">
        <ele>2728</ele>
        <time>2014-07-15T09:42:46+02:00</time>
      </trkpt>
      <trkpt lat="44.69606" lon="7.07699">
        <ele>2724</ele>
        <time>2014-07-15T09:42:51+02:00</time>
      </trkpt>
      <trkpt lat="44.69599" lon="7.07742">
        <ele>2726</ele>
        <time>2014-07-15T09:42:56+02:00</time>
      </trkpt>
      <trkpt lat="44.69566" lon="7.07741">
        <ele>2717</ele>
        <time>2014-07-15T09:43:01+02:00</time>
      </trkpt>
      <trkpt lat="44.69574" lon="7.07757">
        <ele>2720</ele>
        <time>2014-07-15T09:43:06+02:00</time>
      </trkpt>
      <trkpt lat="44.69534" lon="7.07751">
        <ele>2708</ele>
        <time>2014-07-15T09:43:11+02:00</time>
      </trkpt>
      <trkpt lat="44.6956" lon="7.07794">
        <ele>2717</ele>
        <time>2014-07-15T09:43:16+02:00</time>
      </trkpt>
      <trkpt lat="44.69545" lon="7.07831">
        <ele>2713</ele>
        <time>2014-07-15T09:43:21+02:00</time>
      </trkpt>
      <trkpt lat="44.69527" lon="7.07872">
        <ele>2710</ele>
        <time>2014-07-15T09:43:26+02:00</time>
      </trkpt>
      <trkpt lat="44.69509" lon="7.07882">
        <ele>2705</ele>
        <time>2014-07-15T09:43:31+02:00</time>
      </trkpt>
      <trkpt lat="44.69473" lon="7.07951">
        <ele>2692</ele>
        <time>2014-07-15T09:43:36+02:00</time>
      </trkpt>
      <trkpt lat="44.6943" lon="7.0794">
        <ele>2675</ele>
        <time>2014-07-15T09:43:41+02:00</time>
      </trkpt>
      <trkpt lat="44.69415" lon="7.07924">
        <ele>2671</ele>
        <time>2014-07-15T09:43:46+02:00</time>
      </trkpt>
      <trkpt lat="44.69409" lon="7.07955">
        <ele>2662</ele>
        <time>2014-07-15T09:43:51+02:00</time>
      </trkpt>
      <trkpt lat="44.69409" lon="7.07914">
        <ele>2670</ele>
        <time>2014-07-15T09:43:56+02:00</time>
      </trkpt>
      <trkpt lat="44.69391" lon="7.07908">
        <ele>2665</ele>
        <time>2014-07-15T09:44:01+02:00</time>
      </trkpt>
      <trkpt lat="44.69376" lon="7.07945">
        <ele>2649</ele>
        <time>2014-07-15T09:44:06+02:00</time>
      </trkpt>
      <trkpt lat="44.69379" lon="7.07877">
        <ele>2669</ele>
        <time>2014-07-15T09:44:11+02:00</time>
      </trkpt>
      <trkpt lat="44.69369" lon="7.07903">
        <ele>2660</ele>
        <time>2014-07-15T09:44:16+02:00</time>
      </trkpt>
      <trkpt lat="44.69365" lon="7.07872">
        <ele>2668</ele>
        <time>2014-07-15T09:44:21+02:00</time>
      </trkpt>
      <trkpt lat="44.69362" lon="7.07845">
        <ele>2669</ele>
        <time>2014-07-15T09:44:26+02:00</time>
      </trkpt>
      <trkpt lat="44.69333" lon="7.07887">
        <ele>2665</ele>
        <time>2014-07-15T09:44:31+02:00</time>
      </trkpt>
      <trkpt lat="44.69322" lon="7.07851">
        <ele>2672</ele>
        <time>2014-07-15T09:44:36+02:00</time>
      </trkpt>
      <trkpt lat="44.69301" lon="7.07898">
        <ele>2661</ele>
        <time>2014-07-15T09:44:41+02:00</time>
      </trkpt>
      <trkpt lat="44.69318" lon="7.07934">
        <ele>2650</ele>
        <time>2014-07-15T09:44:46+02:00</time>
      </trkpt>
      <trkpt lat="44.69347" lon="7.07982">
        <ele>2631</ele>
        <time>2014-07-15T09:44:51+02:00</time>
      </trkpt>
      <trkpt lat="44.693" lon="7.07982">
        <ele>2629</ele>
        <time>2014-07-15T09:44:56+02:00</time>
      </trkpt>
      <trkpt lat="44.69344" lon="7.08038">
        <ele>2601</ele>
        <time>2014-07-15T09:45:01+02:00</time>
      </trkpt>
      <trkpt lat="44.69204" lon="7.08133">
        <ele>2575</ele>
        <time>2014-07-15T09:45:06+02:00</time>
      </trkpt>
      <trkpt lat="44.69271" lon="7.08237">
        <ele>2549</ele>
        <time>2014-07-15T09:45:11+02:00</time>
      </trkpt>
      <trkpt lat="44.69236" lon="7.08238">
        <ele>2546</ele>
        <time>2014-07-15T09:45:16+02:00</time>
      </trkpt>
      <trkpt lat="44.69275" lon="7.08274">
        <ele>2543</ele>
        <time>2014-07-15T09:45:21+02:00</time>
      </trkpt>
      <trkpt lat="44.69243" lon="7.08269">
        <ele>2540</ele>
        <time>2014-07-15T09:45:26+02:00</time>
      </trkpt>
      <trkpt lat="44.69268" lon="7.08305">
        <ele>2535</ele>
        <time>2014-07-15T09:45:31+02:00</time>
      </trkpt>
      <trkpt lat="44.69222" lon="7.08321">
        <ele>2524</ele>
        <time>2014-07-15T09:45:36+02:00</time>
      </trkpt>
      <trkpt lat="44.69257" lon="7.08373">
        <ele>2515</ele>
        <time>2014-07-15T09:45:41+02:00</time>
      </trkpt>
      <trkpt lat="44.69138" lon="7.0842">
        <ele>2497</ele>
        <time>2014-07-15T09:45:46+02:00</time>
      </trkpt>
      <trkpt lat="44.69185" lon="7.08462">
        <ele>2485</ele>
        <time>2014-07-15T09:45:51+02:00</time>
      </trkpt>
      <trkpt lat="44.69153" lon="7.08472">
        <ele>2484</ele>
        <time>2014-07-15T09:45:56+02:00</time>
      </trkpt>
      <trkpt lat="44.69178" lon="7.08503">
        <ele>2469</ele>
        <time>2014-07-15T09:46:01+02:00</time>
      </trkpt>
      <trkpt lat="44.69009" lon="7.08634">
        <ele>2458</ele>
        <time>2014-07-15T09:46:06+02:00</time>
      </trkpt>
      <trkpt lat="44.68944" lon="7.0879">
        <ele>2431</ele>
        <time>2014-07-15T09:46:11+02:00</time>
      </trkpt>
      <trkpt lat="44.68915" lon="7.08942">
        <ele>2411</ele>
        <time>2014-07-15T09:46:16+02:00</time>
      </trkpt>
      <trkpt lat="44.68879" lon="7.0901">
        <ele>2410</ele>
        <time>2014-07-15T09:46:21+02:00</time>
      </trkpt>
      <trkpt lat="44.68822" lon="7.09063">
        <ele>2399</ele>
        <time>2014-07-15T09:46:26+02:00</time>
      </trkpt>
      <trkpt lat="44.68804" lon="7.09104">
        <ele>2390</ele>
        <time>2014-07-15T09:46:31+02:00</time>
      </trkpt>
      <trkpt lat="44.68754" lon="7.0912">
        <ele>2383</ele>
        <time>2014-07-15T09:46:36+02:00</time>
      </trkpt>
      <trkpt lat="44.68729" lon="7.09141">
        <ele>2379</ele>
        <time>2014-07-15T09:46:41+02:00</time>
      </trkpt>
      <trkpt lat="44.68728" lon="7.09245">
        <ele>2371</ele>
        <time>2014-07-15T09:46:46+02:00</time>
      </trkpt>
      <trkpt lat="44.68714" lon="7.09334">
        <ele>2371</ele>
        <time>2014-07-15T09:46:51+02:00</time>
      </trkpt>
      <trkpt lat="44.68706" lon="7.09412">
        <ele>2365</ele>
        <time>2014-07-15T09:46:56+02:00</time>
      </trkpt>
      <trkpt lat="44.68713" lon="7.09491">
        <ele>2350</ele>
        <time>2014-07-15T09:47:01+02:00</time>
      </trkpt>
      <trkpt lat="44.6867" lon="7.09433">
        <ele>2354</ele>
        <time>2014-07-15T09:47:06+02:00</time>
      </trkpt>
      <trkpt lat="44.68678" lon="7.09501">
        <ele>2337</ele>
        <time>2014-07-15T09:47:11+02:00</time>
      </trkpt>
      <trkpt lat="44.68645" lon="7.0947">
        <ele>2337</ele>
        <time>2014-07-15T09:47:16+02:00</time>
      </trkpt>
      <trkpt lat="44.68645" lon="7.09526">
        <ele>2319</ele>
        <time>2014-07-15T09:47:21+02:00</time>
      </trkpt>
      <trkpt lat="44.68566" lon="7.09433">
        <ele>2332</ele>
        <time>2014-07-15T09:47:26+02:00</time>
      </trkpt>
      <trkpt lat="44.68494" lon="7.09469">
        <ele>2310</ele>
        <time>2014-07-15T09:47:31+02:00</time>
      </trkpt>
      <trkpt lat="44.68368" lon="7.09427">
        <ele>2310</ele>
        <time>2014-07-15T09:47:36+02:00</time>
      </trkpt>
      <trkpt lat="44.6825" lon="7.09527">
        <ele>2333</ele>
        <time>2014-07-15T09:47:41+02:00</time>
      </trkpt>
      <trkpt lat="44.68254" lon="7.09474">
        <ele>2341</ele>
        <time>2014-07-15T09:47:46+02:00</time>
      </trkpt>
      <trkpt lat="44.68218" lon="7.0949">
        <ele>2352</ele>
        <time>2014-07-15T09:47:51+02:00</time>
      </trkpt>
      <trkpt lat="44.68221" lon="7.09448">
        <ele>2360</ele>
        <time>2014-07-15T09:47:56+02:00</time>
      </trkpt>
      <trkpt lat="44.68163" lon="7.09479">
        <ele>2385</ele>
        <time>2014-07-15T09:48:01+02:00</time>
      </trkpt>
      <trkpt lat="44.68171" lon="7.09427">
        <ele>2395</ele>
        <time>2014-07-15T09:48:06+02:00</time>
      </trkpt>
      <trkpt lat="44.68067" lon="7.09542">
        <ele>2391</ele>
        <time>2014-07-15T09:48:11+02:00</time>
      </trkpt>
      <trkpt lat="44.68063" lon="7.09646">
        <ele>2413</ele>
        <time>2014-07-15T09:48:16+02:00</time>
      </trkpt>
      <trkpt lat="44.67991" lon="7.09798">
        <ele>2458</ele>
        <time>2014-07-15T09:48:21+02:00</time>
      </trkpt>
      <trkpt lat="44.68002" lon="7.09928">
        <ele>2453</ele>
        <time>2014-07-15T09:48:26+02:00</time>
      </trkpt>
      <trkpt lat="44.68055" lon="7.1007">
        <ele>2444</ele>
        <time>2014-07-15T09:48:31+02:00</time>
      </trkpt>
      <trkpt lat="44.68016" lon="7.10059">
        <ele>2456</ele>
        <time>2014-07-15T09:48:36+02:00</time>
      </trkpt>
      <trkpt lat="44.6803" lon="7.10137">
        <ele>2453</ele>
        <time>2014-07-15T09:48:41+02:00</time>
      </trkpt>
      <trkpt lat="44.68063" lon="7.10164">
        <ele>2447</ele>
        <time>2014-07-15T09:48:46+02:00</time>
      </trkpt>
      <trkpt lat="44.68005" lon="7.10179">
        <ele>2463</ele>
        <time>2014-07-15T09:48:51+02:00</time>
      </trkpt>
      <trkpt lat="44.6798" lon="7.10137">
        <ele>2467</ele>
        <time>2014-07-15T09:48:56+02:00</time>
      </trkpt>
      <trkpt lat="44.67986" lon="7.10216">
        <ele>2471</ele>
        <time>2014-07-15T09:49:01+02:00</time>
      </trkpt>
      <trkpt lat="44.67901" lon="7.10199">
        <ele>2512</ele>
        <time>2014-07-15T09:49:06+02:00</time>
      </trkpt>
      <trkpt lat="44.67983" lon="7.10252">
        <ele>2480</ele>
        <time>2014-07-15T09:49:11+02:00</time>
      </trkpt>
      <trkpt lat="44.6795" lon="7.10278">
        <ele>2495</ele>
        <time>2014-07-15T09:49:16+02:00</time>
      </trkpt>
      <trkpt lat="44.67972" lon="7.10309">
        <ele>2495</ele>
        <time>2014-07-15T09:49:21+02:00</time>
      </trkpt>
      <trkpt lat="44.67893" lon="7.10288">
        <ele>2523</ele>
        <time>2014-07-15T09:49:26+02:00</time>
      </trkpt>
      <trkpt lat="44.67829" lon="7.10236">
        <ele>2549</ele>
        <time>2014-07-15T09:49:31+02:00</time>
      </trkpt>
      <trkpt lat="44.67761" lon="7.10272">
        <ele>2571</ele>
        <time>2014-07-15T09:49:36+02:00</time>
      </trkpt>
      <trkpt lat="44.67696" lon="7.10225">
        <ele>2583</ele>
        <time>2014-07-15T09:49:41+02:00</time>
      </trkpt>
      <trkpt lat="44.6766" lon="7.10168">
        <ele>2582</ele>
        <time>2014-07-15T09:49:46+02:00</time>
      </trkpt>
      <trkpt lat="44.67631" lon="7.10158">
        <ele>2583</ele>
        <time>2014-07-15T09:49:51+02:00</time>
      </trkpt>
      <trkpt lat="44.67592" lon="7.10085">
        <ele>2583</ele>
        <time>2014-07-15T09:49:56+02:00</time>
      </trkpt>
      <trkpt lat="44.67531" lon="7.10068">
        <ele>2594</ele>
        <time>2014-07-15T09:50:01+02:00</time>
      </trkpt>
      <trkpt lat="44.67491" lon="7.10027">
        <ele>2601</ele>
        <time>2014-07-15T09:50:06+02:00</time>
      </trkpt>
      <trkpt lat="44.6739" lon="7.10016">
        <ele>2623</ele>
        <time>2014-07-15T09:50:11+02:00</time>
      </trkpt>
      <trkpt lat="44.67358" lon="7.10032">
        <ele>2628</ele>
        <time>2014-07-15T09:50:16+02:00</time>
      </trkpt>
      <trkpt lat="44.67286" lon="7.10111">
        <ele>2630</ele>
        <time>2014-07-15T09:50:21+02:00</time>
      </trkpt>
      <trkpt lat="44.67279" lon="7.10188">
        <ele>2620</ele>
        <time>2014-07-15T09:50:26+02:00</time>
      </trkpt>
      <trkpt lat="44.67185" lon="7.10278">
        <ele>2617</ele>
        <time>2014-07-15T09:50:31+02:00</time>
      </trkpt>
      <trkpt lat="44.67207" lon="7.1033">
        <ele>2621</ele>
        <time>2014-07-15T09:50:36+02:00</time>
      </trkpt>
      <trkpt lat="44.67189" lon="7.10376">
        <ele>2631</ele>
        <time>2014-07-15T09:50:41+02:00</time>
      </trkpt>
      <trkpt lat="44.67139" lon="7.10366">
        <ele>2626</ele>
        <time>2014-07-15T09:50:46+02:00</time>
      </trkpt>
      <trkpt lat="44.67099" lon="7.10465">
        <ele>2644</ele>
        <time>2014-07-15T09:50:51+02:00</time>
      </trkpt>
      <trkpt lat="44.67006" lon="7.10464">
        <ele>2635</ele>
        <time>2014-07-15T09:50:56+02:00</time>
      </trkpt>
      <trkpt lat="44.66934" lon="7.10506">
        <ele>2646</ele>
        <time>2014-07-15T09:51:01+02:00</time>
      </trkpt>
      <trkpt lat="44.66862" lon="7.10491">
        <ele>2654</ele>
        <time>2014-07-15T09:51:06+02:00</time>
      </trkpt>
      <trkpt lat="44.66776" lon="7.10428">
        <ele>2675</ele>
        <time>2014-07-15T09:51:11+02:00</time>
      </trkpt>
      <trkpt lat="44.66761" lon="7.10475">
        <ele>2662</ele>
        <time>2014-07-15T09:51:16+02:00</time>
      </trkpt>
      <trkpt lat="44.6674" lon="7.10574">
        <ele>2625</ele>
        <time>2014-07-15T09:51:21+02:00</time>
      </trkpt>
      <trkpt lat="44.66643" lon="7.10548">
        <ele>2616</ele>
        <time>2014-07-15T09:51:26+02:00</time>
      </trkpt>
      <trkpt lat="44.66664" lon="7.10642">
        <ele>2600</ele>
        <time>2014-07-15T09:51:31+02:00</time>
      </trkpt>
      <trkpt lat="44.66621" lon="7.10777">
        <ele>2602</ele>
        <time>2014-07-15T09:51:36+02:00</time>
      </trkpt>
      <trkpt lat="44.66603" lon="7.10819">
        <ele>2604</ele>
        <time>2014-07-15T09:51:41+02:00</time>
      </trkpt>
      <trkpt lat="44.66621" lon="7.10851">
        <ele>2611</ele>
        <time>2014-07-15T09:51:46+02:00</time>
      </trkpt>
      <trkpt lat="44.66581" lon="7.10908">
        <ele>2613</ele>
        <time>2014-07-15T09:51:51+02:00</time>
      </trkpt>
      <trkpt lat="44.66556" lon="7.10982">
        <ele>2620</ele>
        <time>2014-07-15T09:51:56+02:00</time>
      </trkpt>
      <trkpt lat="44.66544" lon="7.10941">
        <ele>2610</ele>
        <time>2014-07-15T09:52:01+02:00</time>
      </trkpt>
      <trkpt lat="44.66461" lon="7.1101">
        <ele>2610</ele>
        <time>2014-07-15T09:52:06+02:00</time>
      </trkpt>
      <trkpt lat="44.66422" lon="7.11018">
        <ele>2610</ele>
        <time>2014-07-15T09:52:11+02:00</time>
      </trkpt>
      <trkpt lat="44.66365" lon="7.11004">
        <ele>2604</ele>
        <time>2014-07-15T09:52:16+02:00</time>
      </trkpt>
      <trkpt lat="44.66311" lon="7.10962">
        <ele>2598</ele>
        <time>2014-07-15T09:52:21+02:00</time>
      </trkpt>
      <trkpt lat="44.66233" lon="7.10957">
        <ele>2599</ele>
        <time>2014-07-15T09:52:26+02:00</time>
      </trkpt>
      <trkpt lat="44.66202" lon="7.10944">
        <ele>2599</ele>
        <time>2014-07-15T09:52:31+02:00</time>
      </trkpt>
      <trkpt lat="44.66183" lon="7.10916">
        <ele>2597</ele>
        <time>2014-07-15T09:52:36+02:00</time>
      </trkpt>
      <trkpt lat="44.66122" lon="7.1095">
        <ele>2590</ele>
        <time>2014-07-15T09:52:41+02:00</time>
      </trkpt>
      <trkpt lat="44.66082" lon="7.10949">
        <ele>2588</ele>
        <time>2014-07-15T09:52:46+02:00</time>
      </trkpt>
      <trkpt lat="44.66028" lon="7.1093">
        <ele>2586</ele>
        <time>2014-07-15T09:52:51+02:00</time>
      </trkpt>
      <trkpt lat="44.65992" lon="7.10922">
        <ele>2587</ele>
        <time>2014-07-15T09:52:56+02:00</time>
      </trkpt>
      <trkpt lat="44.65983" lon="7.10894">
        <ele>2587</ele>
        <time>2014-07-15T09:53:01+02:00</time>
      </trkpt>
      <trkpt lat="44.65928" lon="7.10872">
        <ele>2587</ele>
        <time>2014-07-15T09:53:06+02:00</time>
      </trkpt>
      <trkpt lat="44.65879" lon="7.1081">
        <ele>2599</ele>
        <time>2014-07-15T09:53:11+02:00</time>
      </trkpt>
      <trkpt lat="44.65838" lon="7.10789">
        <ele>2599</ele>
        <time>2014-07-15T09:53:16+02:00</time>
      </trkpt>
      <trkpt lat="44.65769" lon="7.1081">
        <ele>2588</ele>
        <time>2014-07-15T09:53:21+02:00</time>
      </trkpt>
      <trkpt lat="44.6569" lon="7.10742">
        <ele>2595</ele>
        <time>2014-07-15T09:53:26+02:00</time>
      </trkpt>
      <trkpt lat="44.65596" lon="7.10739">
        <ele>2607</ele>
        <time>2014-07-15T09:53:31+02:00</time>
      </trkpt>
      <trkpt lat="44.65506" lon="7.10734">
        <ele>2627</ele>
        <time>2014-07-15T09:53:36+02:00</time>
      </trkpt>
      <trkpt lat="44.65394" lon="7.10794">
        <ele>2633</ele>
        <time>2014-07-15T09:53:41+02:00</time>
      </trkpt>
      <trkpt lat="44.65356" lon="7.10815">
        <ele>2637</ele>
        <time>2014-07-15T09:53:46+02:00</time>
      </trkpt>
      <trkpt lat="44.65351" lon="7.10778">
        <ele>2653</ele>
        <time>2014-07-15T09:53:51+02:00</time>
      </trkpt>
      <trkpt lat="44.65312" lon="7.1082">
        <ele>2653</ele>
        <time>2014-07-15T09:53:56+02:00</time>
      </trkpt>
      <trkpt lat="44.65269" lon="7.10906">
        <ele>2643</ele>
        <time>2014-07-15T09:54:01+02:00</time>
      </trkpt>
      <trkpt lat="44.65209" lon="7.10943">
        <ele>2651</ele>
        <time>2014-07-15T09:54:06+02:00</time>
      </trkpt>
      <trkpt lat="44.65151" lon="7.10955">
        <ele>2661</ele>
        <time>2014-07-15T09:54:11+02:00</time>
      </trkpt>
      <trkpt lat="44.65121" lon="7.10994">
        <ele>2652</ele>
        <time>2014-07-15T09:54:16+02:00</time>
      </trkpt>
      <trkpt lat="44.65045" lon="7.11004">
        <ele>2680</ele>
        <time>2014-07-15T09:54:21+02:00</time>
      </trkpt>
      <trkpt lat="44.6503" lon="7.11033">
        <ele>2671</ele>
        <time>2014-07-15T09:54:26+02:00</time>
      </trkpt>
      <trkpt lat="44.65024" lon="7.11064">
        <ele>2664</ele>
        <time>2014-07-15T09:54:31+02:00</time>
      </trkpt>
      <trkpt lat="44.64966" lon="7.11091">
        <ele>2681</ele>
        <time>2014-07-15T09:54:36+02:00</time>
      </trkpt>
      <trkpt lat="44.64888" lon="7.11093">
        <ele>2705</ele>
        <time>2014-07-15T09:54:41+02:00</time>
      </trkpt>
      <trkpt lat="44.64864" lon="7.11148">
        <ele>2694</ele>
        <time>2014-07-15T09:54:46+02:00</time>
      </trkpt>
      <trkpt lat="44.64898" lon="7.11203">
        <ele>2680</ele>
        <time>2014-07-15T09:54:51+02:00</time>
      </trkpt>
      <trkpt lat="44.64828" lon="7.11269">
        <ele>2691</ele>
        <time>2014-07-15T09:54:56+02:00</time>
      </trkpt>
      <trkpt lat="44.64787" lon="7.11257">
        <ele>2700</ele>
        <time>2014-07-15T09:55:01+02:00</time>
      </trkpt>
      <trkpt lat="44.64653" lon="7.11385">
        <ele>2726</ele>
        <time>2014-07-15T09:55:06+02:00</time>
      </trkpt>
      <trkpt lat="44.6461" lon="7.11377">
        <ele>2753</ele>
        <time>2014-07-15T09:55:11+02:00</time>
      </trkpt>
      <trkpt lat="44.6451" lon="7.11474">
        <ele>2783</ele>
        <time>2014-07-15T09:55:16+02:00</time>
      </trkpt>
      <trkpt lat="44.64472" lon="7.11489">
        <ele>2788</ele>
        <time>2014-07-15T09:55:21+02:00</time>
      </trkpt>
      <trkpt lat="44.64459" lon="7.11521">
        <ele>2769</ele>
        <time>2014-07-15T09:55:26+02:00</time>
      </trkpt>
      <trkpt lat="44.64469" lon="7.1155">
        <ele>2748</ele>
        <time>2014-07-15T09:55:31+02:00</time>
      </trkpt>
      <trkpt lat="44.64414" lon="7.11551">
        <ele>2766</ele>
        <time>2014-07-15T09:55:36+02:00</time>
      </trkpt>
      <trkpt lat="44.64378" lon="7.11577">
        <ele>2766</ele>
        <time>2014-07-15T09:55:41+02:00</time>
      </trkpt>
      <trkpt lat="44.64385" lon="7.11641">
        <ele>2737</ele>
        <time>2014-07-15T09:55:46+02:00</time>
      </trkpt>
      <trkpt lat="44.64372" lon="7.11666">
        <ele>2733</ele>
        <time>2014-07-15T09:55:51+02:00</time>
      </trkpt>
      <trkpt lat="44.6431" lon="7.11661">
        <ele>2743</ele>
        <time>2014-07-15T09:55:56+02:00</time>
      </trkpt>
      <trkpt lat="44.64237" lon="7.117">
        <ele>2718</ele>
        <time>2014-07-15T09:56:01+02:00</time>
      </trkpt>
      <trkpt lat="44.64213" lon="7.11694">
        <ele>2712</ele>
        <time>2014-07-15T09:56:06+02:00</time>
      </trkpt>
      <trkpt lat="44.64179" lon="7.11635">
        <ele>2712</ele>
        <time>2014-07-15T09:56:11+02:00</time>
      </trkpt>
      <trkpt lat="44.64159" lon="7.1158">
        <ele>2706</ele>
        <time>2014-07-15T09:56:16+02:00</time>
      </trkpt>
      <trkpt lat="44.64181" lon="7.11523">
        <ele>2718</ele>
        <time>2014-07-15T09:56:21+02:00</time>
      </trkpt>
      <trkpt lat="44.64172" lon="7.11482">
        <ele>2713</ele>
        <time>2014-07-15T09:56:26+02:00</time>
      </trkpt>
      <trkpt lat="44.64185" lon="7.11442">
        <ele>2720</ele>
        <time>2014-07-15T09:56:31+02:00</time>
      </trkpt>
      <trkpt lat="44.64177" lon="7.11413">
        <ele>2715</ele>
        <time>2014-07-15T09:56:36+02:00</time>
      </trkpt>
      <trkpt lat="44.6419" lon="7.1135">
        <ele>2724</ele>
        <time>2014-07-15T09:56:41+02:00</time>
      </trkpt>
      <trkpt lat="44.64201" lon="7.11274">
        <ele>2736</ele>
        <time>2014-07-15T09:56:46+02:00</time>
      </trkpt>
      <trkpt lat="44.6421" lon="7.11188">
        <ele>2754</ele>
        <time>2014-07-15T09:56:51+02:00</time>
      </trkpt>
      <trkpt lat="44.64187" lon="7.11147">
        <ele>2749</ele>
        <time>2014-07-15T09:56:56+02:00</time>
      </trkpt>
      <trkpt lat="44.64162" lon="7.11087">
        <ele>2746</ele>
        <time>2014-07-15T09:57:01+02:00</time>
      </trkpt>
      <trkpt lat="44.64189" lon="7.11006">
        <ele>2757</ele>
        <time>2014-07-15T09:57:06+02:00</time>
      </trkpt>
      <trkpt lat="44.64194" lon="7.10923">
        <ele>2762</ele>
        <time>2014-07-15T09:57:11+02:00</time>
      </trkpt>
      <trkpt lat="44.6422" lon="7.10889">
        <ele>2765</ele>
        <time>2014-07-15T09:57:16+02:00</time>
      </trkpt>
      <trkpt lat="44.64153" lon="7.10779">
        <ele>2785</ele>
        <time>2014-07-15T09:57:21+02:00</time>
      </trkpt>
      <trkpt lat="44.64133" lon="7.10701">
        <ele>2776</ele>
        <time>2014-07-15T09:57:26+02:00</time>
      </trkpt>
      <trkpt lat="44.64101" lon="7.10607">
        <ele>2769</ele>
        <time>2014-07-15T09:57:31+02:00</time>
      </trkpt>
      <trkpt lat="44.64053" lon="7.10466">
        <ele>2763</ele>
        <time>2014-07-15T09:57:36+02:00</time>
      </trkpt>
      <trkpt lat="44.6401" lon="7.10356">
        <ele>2765</ele>
        <time>2014-07-15T09:57:41+02:00</time>
      </trkpt>
      <trkpt lat="44.64009" lon="7.10226">
        <ele>2743</ele>
        <time>2014-07-15T09:57:46+02:00</time>
      </trkpt>
      <trkpt lat="44.63994" lon="7.10072">
        <ele>2727</ele>
        <time>2014-07-15T09:57:51+02:00</time>
      </trkpt>
      <trkpt lat="44.63951" lon="7.09928">
        <ele>2716</ele>
        <time>2014-07-15T09:57:56+02:00</time>
      </trkpt>
      <trkpt lat="44.63903" lon="7.09876">
        <ele>2722</ele>
        <time>2014-07-15T09:58:01+02:00</time>
      </trkpt>
      <trkpt lat="44.63837" lon="7.09792">
        <ele>2738</ele>
        <time>2014-07-15T09:58:06+02:00</time>
      </trkpt>
      <trkpt lat="44.63797" lon="7.09703">
        <ele>2730</ele>
        <time>2014-07-15T09:58:11+02:00</time>
      </trkpt>
      <trkpt lat="44.63772" lon="7.09662">
        <ele>2724</ele>
        <time>2014-07-15T09:58:16+02:00</time>
      </trkpt>
      <trkpt lat="44.63765" lon="7.09617">
        <ele>2711</ele>
        <time>2014-07-15T09:58:21+02:00</time>
      </trkpt>
      <trkpt lat="44.63688" lon="7.09544">
        <ele>2682</ele>
        <time>2014-07-15T09:58:26+02:00</time>
      </trkpt>
      <trkpt lat="44.63717" lon="7.09526">
        <ele>2684</ele>
        <time>2014-07-15T09:58:31+02:00</time>
      </trkpt>
      <trkpt lat="44.63667" lon="7.09408">
        <ele>2638</ele>
        <time>2014-07-15T09:58:36+02:00</time>
      </trkpt>
      <trkpt lat="44.63635" lon="7.09444">
        <ele>2631</ele>
        <time>2014-07-15T09:58:41+02:00</time>
      </trkpt>
      <trkpt lat="44.6362" lon="7.09395">
        <ele>2612</ele>
        <time>2014-07-15T09:58:46+02:00</time>
      </trkpt>
      <trkpt lat="44.63617" lon="7.09358">
        <ele>2603</ele>
        <time>2014-07-15T09:58:51+02:00</time>
      </trkpt>
      <trkpt lat="44.63584" lon="7.09397">
        <ele>2608</ele>
        <time>2014-07-15T09:58:56+02:00</time>
      </trkpt>
      <trkpt lat="44.63575" lon="7.09275">
        <ele>2577</ele>
        <time>2014-07-15T09:59:01+02:00</time>
      </trkpt>
      <trkpt lat="44.63582" lon="7.09241">
        <ele>2573</ele>
        <time>2014-07-15T09:59:06+02:00</time>
      </trkpt>
      <trkpt lat="44.6357" lon="7.09194">
        <ele>2562</ele>
        <time>2014-07-15T09:59:11+02:00</time>
      </trkpt>
      <trkpt lat="44.63579" lon="7.09129">
        <ele>2561</ele>
        <time>2014-07-15T09:59:16+02:00</time>
      </trkpt>
      <trkpt lat="44.63545" lon="7.09139">
        <ele>2549</ele>
        <time>2014-07-15T09:59:21+02:00</time>
      </trkpt>
      <trkpt lat="44.63523" lon="7.09018">
        <ele>2538</ele>
        <time>2014-07-15T09:59:26+02:00</time>
      </trkpt>
      <trkpt lat="44.63494" lon="7.08979">
        <ele>2528</ele>
        <time>2014-07-15T09:59:31+02:00</time>
      </trkpt>
      <trkpt lat="44.63475" lon="7.08966">
        <ele>2523</ele>
        <time>2014-07-15T09:59:36+02:00</time>
      </trkpt>
      <trkpt lat="44.63479" lon="7.0892">
        <ele>2520</ele>
        <time>2014-07-15T09:59:41+02:00</time>
      </trkpt>
      <trkpt lat="44.63376" lon="7.08779">
        <ele>2464</ele>
        <time>2014-07-15T09:59:46+02:00</time>
      </trkpt>
      <trkpt lat="44.63425" lon="7.0875">
        <ele>2463</ele>
        <time>2014-07-15T09:59:51+02:00</time>
      </trkpt>
      <trkpt lat="44.63434" lon="7.08701">
        <ele>2449</ele>
        <time>2014-07-15T09:59:56+02:00</time>
      </trkpt>
      <trkpt lat="44.634" lon="7.0869">
        <ele>2438</ele>
        <time>2014-07-15T10:00:01+02:00</time>
      </trkpt>
      <trkpt lat="44.63456" lon="7.08447">
        <ele>2406</ele>
        <time>2014-07-15T10:00:06+02:00</time>
      </trkpt>
      <trkpt lat="44.63431" lon="7.08445">
        <ele>2401</ele>
        <time>2014-07-15T10:00:11+02:00</time>
      </trkpt>
      <trkpt lat="44.63436" lon="7.08395">
        <ele>2392</ele>
        <time>2014-07-15T10:00:16+02:00</time>
      </trkpt>
      <trkpt lat="44.63396" lon="7.08411">
        <ele>2389</ele>
        <time>2014-07-15T10:00:21+02:00</time>
      </trkpt>
      <trkpt lat="44.634" lon="7.08348">
        <ele>2381</ele>
        <time>2014-07-15T10:00:26+02:00</time>
      </trkpt>
      <trkpt lat="44.63341" lon="7.0827">
        <ele>2370</ele>
        <time>2014-07-15T10:00:31+02:00</time>
      </trkpt>
      <trkpt lat="44.63357" lon="7.0826">
        <ele>2369</ele>
        <time>2014-07-15T10:00:36+02:00</time>
      </trkpt>
      <trkpt lat="44.63314" lon="7.08053">
        <ele>2343</ele>
        <time>2014-07-15T10:00:41+02:00</time>
      </trkpt>
      <trkpt lat="44.63262" lon="7.0802">
        <ele>2329</ele>
        <time>2014-07-15T10:00:46+02:00</time>
      </trkpt>
      <trkpt lat="44.63234" lon="7.07983">
        <ele>2320</ele>
        <time>2014-07-15T10:00:51+02:00</time>
      </trkpt>
      <trkpt lat="44.63219" lon="7.07925">
        <ele>2313</ele>
        <time>2014-07-15T10:00:56+02:00</time>
      </trkpt>
      <trkpt lat="44.63201" lon="7.07905">
        <ele>2308</ele>
        <time>2014-07-15T10:01:01+02:00</time>
      </trkpt>
      <trkpt lat="44.63182" lon="7.07892">
        <ele>2304</ele>
        <time>2014-07-15T10:01:06+02:00</time>
      </trkpt>
      <trkpt lat="44.63166" lon="7.07845">
        <ele>2296</ele>
        <time>2014-07-15T10:01:11+02:00</time>
      </trkpt>
      <trkpt lat="44.63155" lon="7.07722">
        <ele>2285</ele>
        <time>2014-07-15T10:01:16+02:00</time>
      </trkpt>
      <trkpt lat="44.6316" lon="7.07698">
        <ele>2285</ele>
        <time>2014-07-15T10:01:21+02:00</time>
      </trkpt>
      <trkpt lat="44.63135" lon="7.0768">
        <ele>2273</ele>
        <time>2014-07-15T10:01:26+02:00</time>
      </trkpt>
      <trkpt lat="44.63146" lon="7.07641">
        <ele>2272</ele>
        <time>2014-07-15T10:01:31+02:00</time>
      </trkpt>
      <trkpt lat="44.63105" lon="7.07591">
        <ele>2250</ele>
        <time>2014-07-15T10:01:36+02:00</time>
      </trkpt>
      <trkpt lat="44.63123" lon="7.07526">
        <ele>2247</ele>
        <time>2014-07-15T10:01:41+02:00</time>
      </trkpt>
      <trkpt lat="44.63081" lon="7.07505">
        <ele>2231</ele>
        <time>2014-07-15T10:01:46+02:00</time>
      </trkpt>
      <trkpt lat="44.63081" lon="7.07421">
        <ele>2218</ele>
        <time>2014-07-15T10:01:51+02:00</time>
      </trkpt>
      <trkpt lat="44.63033" lon="7.07367">
        <ele>2193</ele>
        <time>2014-07-15T10:01:56+02:00</time>
      </trkpt>
      <trkpt lat="44.63035" lon="7.0732">
        <ele>2180</ele>
        <time>2014-07-15T10:02:01+02:00</time>
      </trkpt>
      <trkpt lat="44.63015" lon="7.0731">
        <ele>2172</ele>
        <time>2014-07-15T10:02:06+02:00</time>
      </trkpt>
      <trkpt lat="44.63015" lon="7.07254">
        <ele>2159</ele>
        <time>2014-07-15T10:02:11+02:00</time>
      </trkpt>
      <trkpt lat="44.62992" lon="7.07255">
        <ele>2154</ele>
        <time>2014-07-15T10:02:16+02:00</time>
      </trkpt>
      <trkpt lat="44.63001" lon="7.07215">
        <ele>2148</ele>
        <time>2014-07-15T10:02:21+02:00</time>
      </trkpt>
      <trkpt lat="44.62972" lon="7.07203">
        <ele>2140</ele>
        <time>2014-07-15T10:02:26+02:00</time>
      </trkpt>
      <trkpt lat="44.62971" lon="7.07147">
        <ele>2137</ele>
        <time>2014-07-15T10:02:31+02:00</time>
      </trkpt>
      <trkpt lat="44.62924" lon="7.07247">
        <ele>2139</ele>
        <time>2014-07-15T10:02:36+02:00</time>
      </trkpt>
      <trkpt lat="44.62847" lon="7.07286">
        <ele>2138</ele>
        <time>2014-07-15T10:02:41+02:00</time>
      </trkpt>
      <trkpt lat="44.62799" lon="7.07171">
        <ele>2116</ele>
        <time>2014-07-15T10:02:46+02:00</time>
      </trkpt>
      <trkpt lat="44.62761" lon="7.06998">
        <ele>2066</ele>
        <time>2014-07-15T10:02:51+02:00</time>
      </trkpt>
      <trkpt lat="44.62771" lon="7.06904">
        <ele>2036</ele>
        <time>2014-07-15T10:02:56+02:00</time>
      </trkpt>
      <trkpt lat="44.62764" lon="7.06827">
        <ele>2019</ele>
        <time>2014-07-15T10:03:01+02:00</time>
      </trkpt>
      <trkpt lat="44.62863" lon="7.06719">
        <ele>2015</ele>
        <time>2014-07-15T10:03:06+02:00</time>
      </trkpt>
      <trkpt lat="44.62921" lon="7.06626">
        <ele>1984</ele>
        <time>2014-07-15T10:03:11+02:00</time>
      </trkpt>
      <trkpt lat="44.62987" lon="7.06629">
        <ele>1989</ele>
        <time>2014-07-15T10:03:16+02:00</time>
      </trkpt>
      <trkpt lat="44.63102" lon="7.06574">
        <ele>1981</ele>
        <time>2014-07-15T10:03:21+02:00</time>
      </trkpt>
      <trkpt lat="44.63168" lon="7.0649">
        <ele>1970</ele>
        <time>2014-07-15T10:03:26+02:00</time>
      </trkpt>
      <trkpt lat="44.63244" lon="7.06363">
        <ele>1948</ele>
        <time>2014-07-15T10:03:31+02:00</time>
      </trkpt>
      <trkpt lat="44.63265" lon="7.06328">
        <ele>1940</ele>
        <time>2014-07-15T10:03:36+02:00</time>
      </trkpt>
      <trkpt lat="44.63208" lon="7.06292">
        <ele>1924</ele>
        <time>2014-07-15T10:03:41+02:00</time>
      </trkpt>
      <trkpt lat="44.63227" lon="7.06263">
        <ele>1928</ele>
        <time>2014-07-15T10:03:46+02:00</time>
      </trkpt>
      <trkpt lat="44.63154" lon="7.06234">
        <ele>1922</ele>
        <time>2014-07-15T10:03:51+02:00</time>
      </trkpt>
      <trkpt lat="44.63154" lon="7.06185">
        <ele>1938</ele>
        <time>2014-07-15T10:03:56+02:00</time>
      </trkpt>
      <trkpt lat="44.63226" lon="7.06172">
        <ele>1948</ele>
        <time>2014-07-15T10:04:01+02:00</time>
      </trkpt>
      <trkpt lat="44.63293" lon="7.06125">
        <ele>1961</ele>
        <time>2014-07-15T10:04:06+02:00</time>
      </trkpt>
      <trkpt lat="44.6334" lon="7.06125">
        <ele>1954</ele>
        <time>2014-07-15T10:04:11+02:00</time>
      </trkpt>
      <trkpt lat="44.63395" lon="7.06151">
        <ele>1943</ele>
        <time>2014-07-15T10:04:16+02:00</time>
      </trkpt>
      <trkpt lat="44.63452" lon="7.0619">
        <ele>1935</ele>
        <time>2014-07-15T10:04:21+02:00</time>
      </trkpt>
      <trkpt lat="44.63469" lon="7.06221">
        <ele>1933</ele>
        <time>2014-07-15T10:04:26+02:00</time>
      </trkpt>
      <trkpt lat="44.6351" lon="7.0626">
        <ele>1935</ele>
        <time>2014-07-15T10:04:31+02:00</time>
      </trkpt>
      <trkpt lat="44.63543" lon="7.06206">
        <ele>1948</ele>
        <time>2014-07-15T10:04:36+02:00</time>
      </trkpt>
      <trkpt lat="44.63566" lon="7.06237">
        <ele>1943</ele>
        <time>2014-07-15T10:04:41+02:00</time>
      </trkpt>
      <trkpt lat="44.63587" lon="7.0624">
        <ele>1943</ele>
        <time>2014-07-15T10:04:46+02:00</time>
      </trkpt>
      <trkpt lat="44.63627" lon="7.06201">
        <ele>1954</ele>
        <time>2014-07-15T10:04:51+02:00</time>
      </trkpt>
      <trkpt lat="44.63783" lon="7.06162">
        <ele>1988</ele>
        <time>2014-07-15T10:04:56+02:00</time>
      </trkpt>
      <trkpt lat="44.63758" lon="7.06207">
        <ele>1974</ele>
        <time>2014-07-15T10:05:01+02:00</time>
      </trkpt>
      <trkpt lat="44.63873" lon="7.06201">
        <ele>1998</ele>
        <time>2014-07-15T10:05:06+02:00</time>
      </trkpt>
      <trkpt lat="44.63986" lon="7.06131">
        <ele>2012</ele>
        <time>2014-07-15T10:05:11+02:00</time>
      </trkpt>
      <trkpt lat="44.64028" lon="7.06154">
        <ele>2022</ele>
        <time>2014-07-15T10:05:16+02:00</time>
      </trkpt>
      <trkpt lat="44.6407" lon="7.06194">
        <ele>2024</ele>
        <time>2014-07-15T10:05:21+02:00</time>
      </trkpt>
      <trkpt lat="44.64115" lon="7.06152">
        <ele>2033</ele>
        <time>2014-07-15T10:05:26+02:00</time>
      </trkpt>
      <trkpt lat="44.64209" lon="7.06141">
        <ele>2041</ele>
        <time>2014-07-15T10:05:31+02:00</time>
      </trkpt>
      <trkpt lat="44.64255" lon="7.061">
        <ele>2056</ele>
        <time>2014-07-15T10:05:36+02:00</time>
      </trkpt>
      <trkpt lat="44.64302" lon="7.06073">
        <ele>2065</ele>
        <time>2014-07-15T10:05:41+02:00</time>
      </trkpt>
      <trkpt lat="44.64345" lon="7.06066">
        <ele>2066</ele>
        <time>2014-07-15T10:05:46+02:00</time>
      </trkpt>
      <trkpt lat="44.64354" lon="7.05982">
        <ele>2098</ele>
        <time>2014-07-15T10:05:51+02:00</time>
      </trkpt>
      <trkpt lat="44.64403" lon="7.05958">
        <ele>2109</ele>
        <time>2014-07-15T10:05:56+02:00</time>
      </trkpt>
      <trkpt lat="44.64464" lon="7.05997">
        <ele>2098</ele>
        <time>2014-07-15T10:06:01+02:00</time>
      </trkpt>
      <trkpt lat="44.64489" lon="7.0603">
        <ele>2090</ele>
        <time>2014-07-15T10:06:06+02:00</time>
      </trkpt>
      <trkpt lat="44.64527" lon="7.06029">
        <ele>2099</ele>
        <time>2014-07-15T10:06:11+02:00</time>
      </trkpt>
      <trkpt lat="44.64561" lon="7.06059">
        <ele>2100</ele>
        <time>2014-07-15T10:06:16+02:00</time>
      </trkpt>
      <trkpt lat="44.64593" lon="7.06052">
        <ele>2110</ele>
        <time>2014-07-15T10:06:21+02:00</time>
      </trkpt>
      <trkpt lat="44.64631" lon="7.06034">
        <ele>2125</ele>
        <time>2014-07-15T10:06:26+02:00</time>
      </trkpt>
      <trkpt lat="44.64809" lon="7.06031">
        <ele>2148</ele>
        <time>2014-07-15T10:06:31+02:00</time>
      </trkpt>
      <trkpt lat="44.64983" lon="7.05967">
        <ele>2149</ele>
        <time>2014-07-15T10:06:36+02:00</time>
      </trkpt>
      <trkpt lat="44.65072" lon="7.05956">
        <ele>2150</ele>
        <time>2014-07-15T10:06:41+02:00</time>
      </trkpt>
      <trkpt lat="44.65139" lon="7.05977">
        <ele>2150</ele>
        <time>2014-07-15T10:06:46+02:00</time>
      </trkpt>
      <trkpt lat="44.65215" lon="7.0598">
        <ele>2154</ele>
        <time>2014-07-15T10:06:51+02:00</time>
      </trkpt>
      <trkpt lat="44.65272" lon="7.06033">
        <ele>2148</ele>
        <time>2014-07-15T10:06:56+02:00</time>
      </trkpt>
      <trkpt lat="44.65324" lon="7.06041">
        <ele>2151</ele>
        <time>2014-07-15T10:07:01+02:00</time>
      </trkpt>
      <trkpt lat="44.65434" lon="7.05952">
        <ele>2185</ele>
        <time>2014-07-15T10:07:06+02:00</time>
      </trkpt>
      <trkpt lat="44.65484" lon="7.05943">
        <ele>2196</ele>
        <time>2014-07-15T10:07:11+02:00</time>
      </trkpt>
      <trkpt lat="44.65512" lon="7.05991">
        <ele>2188</ele>
        <time>2014-07-15T10:07:16+02:00</time>
      </trkpt>
      <trkpt lat="44.65654" lon="7.0598">
        <ele>2228</ele>
        <time>2014-07-15T10:07:21+02:00</time>
      </trkpt>
      <trkpt lat="44.65711" lon="7.05972">
        <ele>2246</ele>
        <time>2014-07-15T10:07:26+02:00</time>
      </trkpt>
      <trkpt lat="44.65753" lon="7.06001">
        <ele>2251</ele>
        <time>2014-07-15T10:07:31+02:00</time>
      </trkpt>
      <trkpt lat="44.65946" lon="7.05991">
        <ele>2317</ele>
        <time>2014-07-15T10:07:36+02:00</time>
      </trkpt>
      <trkpt lat="44.66055" lon="7.06025">
        <ele>2341</ele>
        <time>2014-07-15T10:07:41+02:00</time>
      </trkpt>
      <trkpt lat="44.66159" lon="7.06057">
        <ele>2355</ele>
        <time>2014-07-15T10:07:46+02:00</time>
      </trkpt>
      <trkpt lat="44.66187" lon="7.06088">
        <ele>2353</ele>
        <time>2014-07-15T10:07:51+02:00</time>
      </trkpt>
      <trkpt lat="44.66283" lon="7.06083">
        <ele>2371</ele>
        <time>2014-07-15T10:07:56+02:00</time>
      </trkpt>
      <trkpt lat="44.66353" lon="7.0615">
        <ele>2366</ele>
        <time>2014-07-15T10:08:01+02:00</time>
      </trkpt>
      <trkpt lat="44.6648" lon="7.06193">
        <ele>2402</ele>
        <time>2014-07-15T10:08:06+02:00</time>
      </trkpt>
      <trkpt lat="44.66563" lon="7.06265">
        <ele>2421</ele>
        <time>2014-07-15T10:08:11+02:00</time>
      </trkpt>
      <trkpt lat="44.66621" lon="7.06316">
        <ele>2444</ele>
        <time>2014-07-15T10:08:16+02:00</time>
      </trkpt>
      <trkpt lat="44.66586" lon="7.06462">
        <ele>2431</ele>
        <time>2014-07-15T10:08:21+02:00</time>
      </trkpt>
      <trkpt lat="44.66596" lon="7.06399">
        <ele>2426</ele>
        <time>2014-07-15T10:08:26+02:00</time>
      </trkpt>
      <trkpt lat="44.6665" lon="7.0632">
        <ele>2459</ele>
        <time>2014-07-15T10:08:31+02:00</time>
      </trkpt>
      <trkpt lat="44.66708" lon="7.06384">
        <ele>2471</ele>
        <time>2014-07-15T10:08:36+02:00</time>
      </trkpt>
      <trkpt lat="44.66809" lon="7.06432">
        <ele>2462</ele>
        <time>2014-07-15T10:08:41+02:00</time>
      </trkpt>
      <trkpt lat="44.66928" lon="7.06456">
        <ele>2497</ele>
        <time>2014-07-15T10:08:46+02:00</time>
      </trkpt>
      <trkpt lat="44.67021" lon="7.06508">
        <ele>2508</ele>
        <time>2014-07-15T10:08:51+02:00</time>
      </trkpt>
      <trkpt lat="44.67055" lon="7.06597">
        <ele>2491</ele>
        <time>2014-07-15T10:08:56+02:00</time>
      </trkpt>
      <trkpt lat="44.67068" lon="7.06553">
        <ele>2507</ele>
        <time>2014-07-15T10:09:01+02:00</time>
      </trkpt>
      <trkpt lat="44.67095" lon="7.06598">
        <ele>2509</ele>
        <time>2014-07-15T10:09:06+02:00</time>
      </trkpt>
      <trkpt lat="44.67103" lon="7.06561">
        <ele>2521</ele>
        <time>2014-07-15T10:09:11+02:00</time>
      </trkpt>
      <trkpt lat="44.67128" lon="7.06587">
        <ele>2526</ele>
        <time>2014-07-15T10:09:16+02:00</time>
      </trkpt>
      <trkpt lat="44.67138" lon="7.06561">
        <ele>2536</ele>
        <time>2014-07-15T10:09:21+02:00</time>
      </trkpt>
      <trkpt lat="44.67163" lon="7.06626">
        <ele>2530</ele>
        <time>2014-07-15T10:09:26+02:00</time>
      </trkpt>
      <trkpt lat="44.67186" lon="7.06564">
        <ele>2558</ele>
        <time>2014-07-15T10:09:31+02:00</time>
      </trkpt>
      <trkpt lat="44.67202" lon="7.06626">
        <ele>2546</ele>
        <time>2014-07-15T10:09:36+02:00</time>
      </trkpt>
      <trkpt lat="44.67218" lon="7.06589">
        <ele>2565</ele>
        <time>2014-07-15T10:09:41+02:00</time>
      </trkpt>
      <trkpt lat="44.67246" lon="7.06647">
        <ele>2564</ele>
        <time>2014-07-15T10:09:46+02:00</time>
      </trkpt>
      <trkpt lat="44.67258" lon="7.06608">
        <ele>2582</ele>
        <time>2014-07-15T10:09:51+02:00</time>
      </trkpt>
      <trkpt lat="44.6729" lon="7.06657">
        <ele>2588</ele>
        <time>2014-07-15T10:09:56+02:00</time>
      </trkpt>
      <trkpt lat="44.6729" lon="7.06616">
        <ele>2597</ele>
        <time>2014-07-15T10:10:01+02:00</time>
      </trkpt>
      <trkpt lat="44.67326" lon="7.06655">
        <ele>2616</ele>
        <time>2014-07-15T10:10:06+02:00</time>
      </trkpt>
      <trkpt lat="44.6733" lon="7.06629">
        <ele>2626</ele>
        <time>2014-07-15T10:10:11+02:00</time>
      </trkpt>
      <trkpt lat="44.6736" lon="7.06692">
        <ele>2631</ele>
        <time>2014-07-15T10:10:16+02:00</time>
      </trkpt>
      <trkpt lat="44.67383" lon="7.0665">
        <ele>2662</ele>
        <time>2014-07-15T10:10:21+02:00</time>
      </trkpt>
      <trkpt lat="44.67445" lon="7.06744">
        <ele>2682</ele>
        <time>2014-07-15T10:10:26+02:00</time>
      </trkpt>
      <trkpt lat="44.67445" lon="7.06713">
        <ele>2688</ele>
        <time>2014-07-15T10:10:31+02:00</time>
      </trkpt>
      <trkpt lat="44.67505" lon="7.06787">
        <ele>2700</ele>
        <time>2014-07-15T10:10:36+02:00</time>
      </trkpt>
      <trkpt lat="44.67567" lon="7.06828">
        <ele>2721</ele>
        <time>2014-07-15T10:10:41+02:00</time>
      </trkpt>
      <trkpt lat="44.67639" lon="7.06851">
        <ele>2742</ele>
        <time>2014-07-15T10:10:46+02:00</time>
      </trkpt>
      <trkpt lat="44.67682" lon="7.06828">
        <ele>2760</ele>
        <time>2014-07-15T10:10:51+02:00</time>
      </trkpt>
      <trkpt lat="44.67664" lon="7.06808">
        <ele>2760</ele>
        <time>2014-07-15T10:10:56+02:00</time>
      </trkpt>
      <trkpt lat="44.67752" lon="7.06802">
        <ele>2779</ele>
        <time>2014-07-15T10:11:01+02:00</time>
      </trkpt>
      <trkpt lat="44.67795" lon="7.06805">
        <ele>2786</ele>
        <time>2014-07-15T10:11:06+02:00</time>
      </trkpt>
      <trkpt lat="44.6791" lon="7.06851">
        <ele>2820</ele>
        <time>2014-07-15T10:11:11+02:00</time>
      </trkpt>
      <trkpt lat="44.67974" lon="7.06985">
        <ele>2832</ele>
        <time>2014-07-15T10:11:16+02:00</time>
      </trkpt>
      <trkpt lat="44.68007" lon="7.06964">
        <ele>2838</ele>
        <time>2014-07-15T10:11:21+02:00</time>
      </trkpt>
      <trkpt lat="44.68129" lon="7.06849">
        <ele>2808</ele>
        <time>2014-07-15T10:11:26+02:00</time>
      </trkpt>
      <trkpt lat="44.68163" lon="7.06808">
        <ele>2796</ele>
        <time>2014-07-15T10:11:31+02:00</time>
      </trkpt>
      <trkpt lat="44.68186" lon="7.06737">
        <ele>2786</ele>
        <time>2014-07-15T10:11:36+02:00</time>
      </trkpt>
      <trkpt lat="44.68237" lon="7.06691">
        <ele>2759</ele>
        <time>2014-07-15T10:11:41+02:00</time>
      </trkpt>
      <trkpt lat="44.68257" lon="7.06614">
        <ele>2755</ele>
        <time>2014-07-15T10:11:46+02:00</time>
      </trkpt>
      <trkpt lat="44.68331" lon="7.06499">
        <ele>2730</ele>
        <time>2014-07-15T10:11:51+02:00</time>
      </trkpt>
      <trkpt lat="44.68516" lon="7.06134">
        <ele>2684</ele>
        <time>2014-07-15T10:11:56+02:00</time>
      </trkpt>
      <trkpt lat="44.68528" lon="7.06178">
        <ele>2658</ele>
        <time>2014-07-15T10:12:01+02:00</time>
      </trkpt>
      <trkpt lat="44.68523" lon="7.06275">
        <ele>2634</ele>
        <time>2014-07-15T10:12:06+02:00</time>
      </trkpt>
      <trkpt lat="44.68582" lon="7.06178">
        <ele>2609</ele>
        <time>2014-07-15T10:12:11+02:00</time>
      </trkpt>
      <trkpt lat="44.68579" lon="7.06324">
        <ele>2589</ele>
        <time>2014-07-15T10:12:16+02:00</time>
      </trkpt>
      <trkpt lat="44.6858" lon="7.06524">
        <ele>2561</ele>
        <time>2014-07-15T10:12:21+02:00</time>
      </trkpt>
      <trkpt lat="44.68596" lon="7.06607">
        <ele>2547</ele>
        <time>2014-07-15T10:12:26+02:00</time>
      </trkpt>
      <trkpt lat="44.6863" lon="7.06576">
        <ele>2533</ele>
        <time>2014-07-15T10:12:31+02:00</time>
      </trkpt>
      <trkpt lat="44.68664" lon="7.0656">
        <ele>2527</ele>
        <time>2014-07-15T10:12:36+02:00</time>
      </trkpt>
      <trkpt lat="44.68684" lon="7.06492">
        <ele>2525</ele>
        <time>2014-07-15T10:12:41+02:00</time>
      </trkpt>
      <trkpt lat="44.68718" lon="7.06456">
        <ele>2520</ele>
        <time>2014-07-15T10:12:46+02:00</time>
      </trkpt>
      <trkpt lat="44.68733" lon="7.06453">
        <ele>2518</ele>
        <time>2014-07-15T10:12:51+02:00</time>
      </trkpt>
      <trkpt lat="44.68738" lon="7.06401">
        <ele>2519</ele>
        <time>2014-07-15T10:12:56+02:00</time>
      </trkpt>
      <trkpt lat="44.68774" lon="7.06299">
        <ele>2510</ele>
        <time>2014-07-15T10:13:01+02:00</time>
      </trkpt>
      <trkpt lat="44.68793" lon="7.06229">
        <ele>2497</ele>
        <time>2014-07-15T10:13:06+02:00</time>
      </trkpt>
      <trkpt lat="44.68859" lon="7.06158">
        <ele>2478</ele>
        <time>2014-07-15T10:13:11+02:00</time>
      </trkpt>
      <trkpt lat="44.68899" lon="7.06087">
        <ele>2466</ele>
        <time>2014-07-15T10:13:16+02:00</time>
      </trkpt>
      <trkpt lat="44.68909" lon="7.0604">
        <ele>2460</ele>
        <time>2014-07-15T10:13:21+02:00</time>
      </trkpt>
      <trkpt lat="44.68967" lon="7.05988">
        <ele>2456</ele>
        <time>2014-07-15T10:13:26+02:00</time>
      </trkpt>
      <trkpt lat="44.68968" lon="7.05854">
        <ele>2447</ele>
        <time>2014-07-15T10:13:31+02:00</time>
      </trkpt>
      <trkpt lat="44.68972" lon="7.05808">
        <ele>2444</ele>
        <time>2014-07-15T10:13:36+02:00</time>
      </trkpt>
      <trkpt lat="44.69026" lon="7.05653">
        <ele>2427</ele>
        <time>2014-07-15T10:13:41+02:00</time>
      </trkpt>
      <trkpt lat="44.69041" lon="7.05562">
        <ele>2419</ele>
        <time>2014-07-15T10:13:46+02:00</time>
      </trkpt>
      <trkpt lat="44.69073" lon="7.05479">
        <ele>2413</ele>
        <time>2014-07-15T10:13:51+02:00</time>
      </trkpt>
      <trkpt lat="44.69093" lon="7.05387">
        <ele>2399</ele>
        <time>2014-07-15T10:13:56+02:00</time>
      </trkpt>
      <trkpt lat="44.69156" lon="7.05307">
        <ele>2378</ele>
        <time>2014-07-15T10:14:01+02:00</time>
      </trkpt>
      <trkpt lat="44.69229" lon="7.05209">
        <ele>2348</ele>
        <time>2014-07-15T10:14:06+02:00</time>
      </trkpt>
      <trkpt lat="44.69266" lon="7.05158">
        <ele>2342</ele>
        <time>2014-07-15T10:14:11+02:00</time>
      </trkpt>
      <trkpt lat="44.69311" lon="7.05158">
        <ele>2336</ele>
        <time>2014-07-15T10:14:16+02:00</time>
      </trkpt>
      <trkpt lat="44.69365" lon="7.05121">
        <ele>2327</ele>
        <time>2014-07-15T10:14:21+02:00</time>
      </trkpt>
      <trkpt lat="44.69376" lon="7.05074">
        <ele>2323</ele>
        <time>2014-07-15T10:14:26+02:00</time>
      </trkpt>
      <trkpt lat="44.69391" lon="7.0504">
        <ele>2318</ele>
        <time>2014-07-15T10:14:31+02:00</time>
      </trkpt>
      <trkpt lat="44.69402" lon="7.04998">
        <ele>2316</ele>
        <time>2014-07-15T10:14:36+02:00</time>
      </trkpt>
      <trkpt lat="44.69438" lon="7.0494">
        <ele>2304</ele>
        <time>2014-07-15T10:14:41+02:00</time>
      </trkpt>
      <trkpt lat="44.69467" lon="7.04873">
        <ele>2299</ele>
        <time>2014-07-15T10:14:46+02:00</time>
      </trkpt>
      <trkpt lat="44.69528" lon="7.04826">
        <ele>2286</ele>
        <time>2014-07-15T10:14:51+02:00</time>
      </trkpt>
      <trkpt lat="44.69555" lon="7.04785">
        <ele>2284</ele>
        <time>2014-07-15T10:14:56+02:00</time>
      </trkpt>
      <trkpt lat="44.69632" lon="7.04717">
        <ele>2267</ele>
        <time>2014-07-15T10:15:01+02:00</time>
      </trkpt>
      <trkpt lat="44.69679" lon="7.04638">
        <ele>2267</ele>
        <time>2014-07-15T10:15:06+02:00</time>
      </trkpt>
      <trkpt lat="44.69737" lon="7.04596">
        <ele>2253</ele>
        <time>2014-07-15T10:15:11+02:00</time>
      </trkpt>
      <trkpt lat="44.6979" lon="7.04481">
        <ele>2244</ele>
        <time>2014-07-15T10:15:16+02:00</time>
      </trkpt>
      <trkpt lat="44.69825" lon="7.04435">
        <ele>2241</ele>
        <time>2014-07-15T10:15:21+02:00</time>
      </trkpt>
      <trkpt lat="44.69846" lon="7.04431">
        <ele>2231</ele>
        <time>2014-07-15T10:15:26+02:00</time>
      </trkpt>
      <trkpt lat="44.69869" lon="7.044">
        <ele>2224</ele>
        <time>2014-07-15T10:15:31+02:00</time>
      </trkpt>
      <trkpt lat="44.69891" lon="7.0439">
        <ele>2219</ele>
        <time>2014-07-15T10:15:36+02:00</time>
      </trkpt>
      <trkpt lat="44.69939" lon="7.04343">
        <ele>2214</ele>
        <time>2014-07-15T10:15:41+02:00</time>
      </trkpt>
      <trkpt lat="44.69981" lon="7.04345">
        <ele>2204</ele>
        <time>2014-07-15T10:15:46+02:00</time>
      </trkpt>
      <trkpt lat="44.70037" lon="7.04298">
        <ele>2197</ele>
        <time>2014-07-15T10:15:51+02:00</time>
      </trkpt>
      <trkpt lat="44.70084" lon="7.04249">
        <ele>2196</ele>
        <time>2014-07-15T10:15:56+02:00</time>
      </trkpt>
      <trkpt lat="44.70123" lon="7.04234">
        <ele>2190</ele>
        <time>2014-07-15T10:16:01+02:00</time>
      </trkpt>
      <trkpt lat="44.70173" lon="7.04202">
        <ele>2185</ele>
        <time>2014-07-15T10:16:06+02:00</time>
      </trkpt>
      <trkpt lat="44.70244" lon="7.04134">
        <ele>2178</ele>
        <time>2014-07-15T10:16:11+02:00</time>
      </trkpt>
      <trkpt lat="44.70283" lon="7.04111">
        <ele>2177</ele>
        <time>2014-07-15T10:16:16+02:00</time>
      </trkpt>
      <trkpt lat="44.70351" lon="7.04063">
        <ele>2174</ele>
        <time>2014-07-15T10:16:21+02:00</time>
      </trkpt>
      <trkpt lat="44.70413" lon="7.04019">
        <ele>2170</ele>
        <time>2014-07-15T10:16:26+02:00</time>
      </trkpt>
      <trkpt lat="44.70471" lon="7.03951">
        <ele>2167</ele>
        <time>2014-07-15T10:16:31+02:00</time>
      </trkpt>
      <trkpt lat="44.70533" lon="7.03836">
        <ele>2171</ele>
        <time>2014-07-15T10:16:36+02:00</time>
      </trkpt>
      <trkpt lat="44.70552" lon="7.0381">
        <ele>2170</ele>
        <time>2014-07-15T10:16:41+02:00</time>
      </trkpt>
      <trkpt lat="44.70623" lon="7.03787">
        <ele>2157</ele>
        <time>2014-07-15T10:16:46+02:00</time>
      </trkpt>
      <trkpt lat="44.70658" lon="7.03753">
        <ele>2158</ele>
        <time>2014-07-15T10:16:51+02:00</time>
      </trkpt>
      <trkpt lat="44.707" lon="7.03731">
        <ele>2155</ele>
        <time>2014-07-15T10:16:56+02:00</time>
      </trkpt>
      <trkpt lat="44.70718" lon="7.03677">
        <ele>2156</ele>
        <time>2014-07-15T10:17:01+02:00</time>
      </trkpt>
      <trkpt lat="44.70732" lon="7.03653">
        <ele>2157</ele>
        <time>2014-07-15T10:17:06+02:00</time>
      </trkpt>
      <trkpt lat="44.70736" lon="7.03593">
        <ele>2158</ele>
        <time>2014-07-15T10:17:11+02:00</time>
      </trkpt>
      <trkpt lat="44.7076" lon="7.03491">
        <ele>2160</ele>
        <time>2014-07-15T10:17:16+02:00</time>
      </trkpt>
      <trkpt lat="44.70815" lon="7.03412">
        <ele>2158</ele>
        <time>2014-07-15T10:17:21+02:00</time>
      </trkpt>
      <trkpt lat="44.70848" lon="7.03351">
        <ele>2151</ele>
        <time>2014-07-15T10:17:26+02:00</time>
      </trkpt>
      <trkpt lat="44.70858" lon="7.03296">
        <ele>2138</ele>
        <time>2014-07-15T10:17:31+02:00</time>
      </trkpt>
      <trkpt lat="44.70887" lon="7.0323">
        <ele>2126</ele>
        <time>2014-07-15T10:17:36+02:00</time>
      </trkpt>
      <trkpt lat="44.70893" lon="7.03197">
        <ele>2124</ele>
        <time>2014-07-15T10:17:41+02:00</time>
      </trkpt>
      <trkpt lat="44.70875" lon="7.03204">
        <ele>2117</ele>
        <time>2014-07-15T10:17:46+02:00</time>
      </trkpt>
      <trkpt lat="44.70883" lon="7.03146">
        <ele>2117</ele>
        <time>2014-07-15T10:17:51+02:00</time>
      </trkpt>
      <trkpt lat="44.70911" lon="7.03097">
        <ele>2123</ele>
        <time>2014-07-15T10:17:56+02:00</time>
      </trkpt>
      <trkpt lat="44.70887" lon="7.03076">
        <ele>2116</ele>
        <time>2014-07-15T10:18:01+02:00</time>
      </trkpt>
      <trkpt lat="44.70887" lon="7.03049">
        <ele>2115</ele>
        <time>2014-07-15T10:18:06+02:00</time>
      </trkpt>
      <trkpt lat="44.70844" lon="7.03069">
        <ele>2148</ele>
        <time>2014-07-15T10:18:11+02:00</time>
      </trkpt>
      <trkpt lat="44.70886" lon="7.02968">
        <ele>2113</ele>
        <time>2014-07-15T10:18:16+02:00</time>
      </trkpt>
      <trkpt lat="44.70929" lon="7.02867">
        <ele>2102</ele>
        <time>2014-07-15T10:18:21+02:00</time>
      </trkpt>
      <trkpt lat="44.70983" lon="7.02757">
        <ele>2077</ele>
        <time>2014-07-15T10:18:26+02:00</time>
      </trkpt>
      <trkpt lat="44.7104" lon="7.02676">
        <ele>2053</ele>
        <time>2014-07-15T10:18:31+02:00</time>
      </trkpt>
      <trkpt lat="44.7105" lon="7.0263">
        <ele>2046</ele>
        <time>2014-07-15T10:18:36+02:00</time>
      </trkpt>
      <trkpt lat="44.71075" lon="7.02593">
        <ele>2047</ele>
        <time>2014-07-15T10:18:41+02:00</time>
      </trkpt>
      <trkpt lat="44.71121" lon="7.0254">
        <ele>2040</ele>
        <time>2014-07-15T10:18:46+02:00</time>
      </trkpt>
      <trkpt lat="44.71169" lon="7.02525">
        <ele>2036</ele>
        <time>2014-07-15T10:18:51+02:00</time>
      </trkpt>
      <trkpt lat="44.71193" lon="7.02402">
        <ele>2031</ele>
        <time>2014-07-15T10:18:56+02:00</time>
      </trkpt>
      <trkpt lat="44.71249" lon="7.02289">
        <ele>2022</ele>
        <time>2014-07-15T10:19:01+02:00</time>
      </trkpt>
      <trkpt lat="44.71286" lon="7.02192">
        <ele>2020</ele>
        <time>2014-07-15T10:19:06+02:00</time>
      </trkpt>
      <trkpt lat="44.71383" lon="7.02177">
        <ele>2020</ele>
        <time>2014-07-15T10:19:11+02:00</time>
      </trkpt>
      <trkpt lat="44.71447" lon="7.02149">
        <ele>2019</ele>
        <time>2014-07-15T10:19:16+02:00</time>
      </trkpt>
      <trkpt lat="44.71485" lon="7.02082">
        <ele>2022</ele>
        <time>2014-07-15T10:19:21+02:00</time>
      </trkpt>
      <trkpt lat="44.71562" lon="7.02052">
        <ele>2019</ele>
        <time>2014-07-15T10:19:26+02:00</time>
      </trkpt>
      <trkpt lat="44.71597" lon="7.01976">
        <ele>2019</ele>
        <time>2014-07-15T10:19:31+02:00</time>
      </trkpt>
      <trkpt lat="44.71635" lon="7.01908">
        <ele>2014</ele>
        <time>2014-07-15T10:19:36+02:00</time>
      </trkpt>
      <trkpt lat="44.71669" lon="7.01853">
        <ele>2013</ele>
        <time>2014-07-15T10:19:41+02:00</time>
      </trkpt>
      <trkpt lat="44.71695" lon="7.01764">
        <ele>2018</ele>
        <time>2014-07-15T10:19:46+02:00</time>
      </trkpt>
      <trkpt lat="44.71723" lon="7.01743">
        <ele>2016</ele>
        <time>2014-07-15T10:19:51+02:00</time>
      </trkpt>
      <trkpt lat="44.71761" lon="7.01701">
        <ele>2014</ele>
        <time>2014-07-15T10:19:56+02:00</time>
      </trkpt>
      <trkpt lat="44.71792" lon="7.01664">
        <ele>2013</ele>
        <time>2014-07-15T10:20:01+02:00</time>
      </trkpt>
      <trkpt lat="44.71818" lon="7.01615">
        <ele>2019</ele>
        <time>2014-07-15T10:20:06+02:00</time>
      </trkpt>
      <trkpt lat="44.71881" lon="7.01563">
        <ele>2012</ele>
        <time>2014-07-15T10:20:11+02:00</time>
      </trkpt>
      <trkpt lat="44.71909" lon="7.01519">
        <ele>2018</ele>
        <time>2014-07-15T10:20:16+02:00</time>
      </trkpt>
      <trkpt lat="44.71943" lon="7.01461">
        <ele>2025</ele>
        <time>2014-07-15T10:20:21+02:00</time>
      </trkpt>
      <trkpt lat="44.71995" lon="7.01438">
        <ele>2013</ele>
        <time>2014-07-15T10:20:26+02:00</time>
      </trkpt>
      <trkpt lat="44.72039" lon="7.01413">
        <ele>2002</ele>
        <time>2014-07-15T10:20:31+02:00</time>
      </trkpt>
      <trkpt lat="44.72074" lon="7.01367">
        <ele>2004</ele>
        <time>2014-07-15T10:20:36+02:00</time>
      </trkpt>
      <trkpt lat="44.72113" lon="7.01349">
        <ele>1997</ele>
        <time>2014-07-15T10:20:41+02:00</time>
      </trkpt>
      <trkpt lat="44.72144" lon="7.01325">
        <ele>1995</ele>
        <time>2014-07-15T10:20:46+02:00</time>
      </trkpt>
      <trkpt lat="44.72167" lon="7.01286">
        <ele>1996</ele>
        <time>2014-07-15T10:20:51+02:00</time>
      </trkpt>
      <trkpt lat="44.72194" lon="7.01286">
        <ele>1990</ele>
        <time>2014-07-15T10:20:56+02:00</time>
      </trkpt>
      <trkpt lat="44.72283" lon="7.012">
        <ele>1980</ele>
        <time>2014-07-15T10:21:01+02:00</time>
      </trkpt>
      <trkpt lat="44.72302" lon="7.01181">
        <ele>1982</ele>
        <time>2014-07-15T10:21:06+02:00</time>
      </trkpt>
      <trkpt lat="44.72349" lon="7.0115">
        <ele>1979</ele>
        <time>2014-07-15T10:21:11+02:00</time>
      </trkpt>
      <trkpt lat="44.72361" lon="7.01103">
        <ele>1980</ele>
        <time>2014-07-15T10:21:16+02:00</time>
      </trkpt>
      <trkpt lat="44.72385" lon="7.0104">
        <ele>1984</ele>
        <time>2014-07-15T10:21:21+02:00</time>
      </trkpt>
      <trkpt lat="44.72381" lon="7.00996">
        <ele>1998</ele>
        <time>2014-07-15T10:21:26+02:00</time>
      </trkpt>
      <trkpt lat="44.72397" lon="7.00991">
        <ele>1995</ele>
        <time>2014-07-15T10:21:31+02:00</time>
      </trkpt>
      <trkpt lat="44.72431" lon="7.00904">
        <ele>1994</ele>
        <time>2014-07-15T10:21:36+02:00</time>
      </trkpt>
      <trkpt lat="44.72462" lon="7.00878">
        <ele>1978</ele>
        <time>2014-07-15T10:21:41+02:00</time>
      </trkpt>
      <trkpt lat="44.72462" lon="7.00823">
        <ele>1986</ele>
        <time>2014-07-15T10:21:46+02:00</time>
      </trkpt>
      <trkpt lat="44.72482" lon="7.00773">
        <ele>1985</ele>
        <time>2014-07-15T10:21:51+02:00</time>
      </trkpt>
      <trkpt lat="44.72519" lon="7.00761">
        <ele>1968</ele>
        <time>2014-07-15T10:21:56+02:00</time>
      </trkpt>
      <trkpt lat="44.72512" lon="7.00697">
        <ele>1969</ele>
        <time>2014-07-15T10:22:01+02:00</time>
      </trkpt>
      <trkpt lat="44.7255" lon="7.00666">
        <ele>1948</ele>
        <time>2014-07-15T10:22:06+02:00</time>
      </trkpt>
      <trkpt lat="44.72584" lon="7.00625">
        <ele>1943</ele>
        <time>2014-07-15T10:22:11+02:00</time>
      </trkpt>
      <trkpt lat="44.7262" lon="7.00562">
        <ele>1938</ele>
        <time>2014-07-15T10:22:16+02:00</time>
      </trkpt>
      <trkpt lat="44.72632" lon="7.00447">
        <ele>1954</ele>
        <time>2014-07-15T10:22:21+02:00</time>
      </trkpt>
      <trkpt lat="44.72726" lon="7.00386">
        <ele>1940</ele>
        <time>2014-07-15T10:22:26+02:00</time>
      </trkpt>
      <trkpt lat="44.72765" lon="7.00358">
        <ele>1936</ele>
        <time>2014-07-15T10:22:31+02:00</time>
      </trkpt>
      <trkpt lat="44.72823" lon="7.00297">
        <ele>1932</ele>
        <time>2014-07-15T10:22:36+02:00</time>
      </trkpt>
      <trkpt lat="44.72829" lon="7.00222">
        <ele>1943</ele>
        <time>2014-07-15T10:22:41+02:00</time>
      </trkpt>
      <trkpt lat="44.72882" lon="7.00169">
        <ele>1938</ele>
        <time>2014-07-15T10:22:46+02:00</time>
      </trkpt>
      <trkpt lat="44.72904" lon="7.00136">
        <ele>1939</ele>
        <time>2014-07-15T10:22:51+02:00</time>
      </trkpt>
      <trkpt lat="44.72968" lon="7.0011">
        <ele>1925</ele>
        <time>2014-07-15T10:22:56+02:00</time>
      </trkpt>
      <trkpt lat="44.73007" lon="7.00104">
        <ele>1915</ele>
        <time>2014-07-15T10:23:01+02:00</time>
      </trkpt>
      <trkpt lat="44.73055" lon="7.00026">
        <ele>1913</ele>
        <time>2014-07-15T10:23:06+02:00</time>
      </trkpt>
      <trkpt lat="44.73087" lon="6.9997">
        <ele>1917</ele>
        <time>2014-07-15T10:23:11+02:00</time>
      </trkpt>
      <trkpt lat="44.73139" lon="6.99949">
        <ele>1912</ele>
        <time>2014-07-15T10:23:16+02:00</time>
      </trkpt>
      <trkpt lat="44.73184" lon="6.99908">
        <ele>1912</ele>
        <time>2014-07-15T10:23:21+02:00</time>
      </trkpt>
      <trkpt lat="44.73238" lon="6.99921">
        <ele>1900</ele>
        <time>2014-07-15T10:23:26+02:00</time>
      </trkpt>
      <trkpt lat="44.73244" lon="6.99903">
        <ele>1901</ele>
        <time>2014-07-15T10:23:31+02:00</time>
      </trkpt>
      <trkpt lat="44.73267" lon="6.99906">
        <ele>1895</ele>
        <time>2014-07-15T10:23:36+02:00</time>
      </trkpt>
      <trkpt lat="44.73267" lon="6.99877">
        <ele>1899</ele>
        <time>2014-07-15T10:23:41+02:00</time>
      </trkpt>
      <trkpt lat="44.73324" lon="6.99881">
        <ele>1884</ele>
        <time>2014-07-15T10:23:46+02:00</time>
      </trkpt>
      <trkpt lat="44.7335" lon="6.99829">
        <ele>1897</ele>
        <time>2014-07-15T10:23:51+02:00</time>
      </trkpt>
      <trkpt lat="44.73403" lon="6.99774">
        <ele>1886</ele>
        <time>2014-07-15T10:23:56+02:00</time>
      </trkpt>
      <trkpt lat="44.73436" lon="6.99759">
        <ele>1864</ele>
        <time>2014-07-15T10:24:01+02:00</time>
      </trkpt>
      <trkpt lat="44.73468" lon="6.99723">
        <ele>1850</ele>
        <time>2014-07-15T10:24:06+02:00</time>
      </trkpt>
      <trkpt lat="44.73511" lon="6.99738">
        <ele>1831</ele>
        <time>2014-07-15T10:24:11+02:00</time>
      </trkpt>
      <trkpt lat="44.73567" lon="6.99691">
        <ele>1824</ele>
        <time>2014-07-15T10:24:16+02:00</time>
      </trkpt>
      <trkpt lat="44.73603" lon="6.99678">
        <ele>1817</ele>
        <time>2014-07-15T10:24:21+02:00</time>
      </trkpt>
      <trkpt lat="44.73628" lon="6.99657">
        <ele>1815</ele>
        <time>2014-07-15T10:24:26+02:00</time>
      </trkpt>
      <trkpt lat="44.73666" lon="6.99601">
        <ele>1820</ele>
        <time>2014-07-15T10:24:31+02:00</time>
      </trkpt>
      <trkpt lat="44.73752" lon="6.99542">
        <ele>1814</ele>
        <time>2014-07-15T10:24:36+02:00</time>
      </trkpt>
      <trkpt lat="44.73788" lon="6.99511">
        <ele>1815</ele>
        <time>2014-07-15T10:24:41+02:00</time>
      </trkpt>
      <trkpt lat="44.73816" lon="6.99513">
        <ele>1808</ele>
        <time>2014-07-15T10:24:46+02:00</time>
      </trkpt>
      <trkpt lat="44.73834" lon="6.99494">
        <ele>1810</ele>
        <time>2014-07-15T10:24:51+02:00</time>
      </trkpt>
      <trkpt lat="44.73878" lon="6.99481">
        <ele>1804</ele>
        <time>2014-07-15T10:24:56+02:00</time>
      </trkpt>
      <trkpt lat="44.73943" lon="6.99403">
        <ele>1805</ele>
        <time>2014-07-15T10:25:01+02:00</time>
      </trkpt>
      <trkpt lat="44.74" lon="6.99337">
        <ele>1811</ele>
        <time>2014-07-15T10:25:06+02:00</time>
      </trkpt>
      <trkpt lat="44.74097" lon="6.99296">
        <ele>1813</ele>
        <time>2014-07-15T10:25:11+02:00</time>
      </trkpt>
      <trkpt lat="44.74151" lon="6.99298">
        <ele>1806</ele>
        <time>2014-07-15T10:25:16+02:00</time>
      </trkpt>
      <trkpt lat="44.7421" lon="6.99312">
        <ele>1794</ele>
        <time>2014-07-15T10:25:21+02:00</time>
      </trkpt>
      <trkpt lat="44.74257" lon="6.99317">
        <ele>1789</ele>
        <time>2014-07-15T10:25:26+02:00</time>
      </trkpt>
      <trkpt lat="44.74303" lon="6.99312">
        <ele>1786</ele>
        <time>2014-07-15T10:25:31+02:00</time>
      </trkpt>
      <trkpt lat="44.74335" lon="6.99359">
        <ele>1770</ele>
        <time>2014-07-15T10:25:36+02:00</time>
      </trkpt>
      <trkpt lat="44.7437" lon="6.99382">
        <ele>1765</ele>
        <time>2014-07-15T10:25:41+02:00</time>
      </trkpt>
      <trkpt lat="44.74423" lon="6.99366">
        <ele>1765</ele>
        <time>2014-07-15T10:25:46+02:00</time>
      </trkpt>
      <trkpt lat="44.74467" lon="6.99403">
        <ele>1761</ele>
        <time>2014-07-15T10:25:51+02:00</time>
      </trkpt>
      <trkpt lat="44.74496" lon="6.99422">
        <ele>1761</ele>
        <time>2014-07-15T10:25:56+02:00</time>
      </trkpt>
      <trkpt lat="44.74563" lon="6.99423">
        <ele>1761</ele>
        <time>2014-07-15T10:26:01+02:00</time>
      </trkpt>
      <trkpt lat="44.74585" lon="6.99424">
        <ele>1760</ele>
        <time>2014-07-15T10:26:06+02:00</time>
      </trkpt>
      <trkpt lat="44.74611" lon="6.99411">
        <ele>1760</ele>
        <time>2014-07-15T10:26:11+02:00</time>
      </trkpt>
      <trkpt lat="44.74666" lon="6.99416">
        <ele>1752</ele>
        <time>2014-07-15T10:26:16+02:00</time>
      </trkpt>
      <trkpt lat="44.74727" lon="6.99345">
        <ele>1752</ele>
        <time>2014-07-15T10:26:21+02:00</time>
      </trkpt>
      <trkpt lat="44.74761" lon="6.99322">
        <ele>1756</ele>
        <time>2014-07-15T10:26:26+02:00</time>
      </trkpt>
      <trkpt lat="44.75036" lon="6.99343">
        <ele>1754</ele>
        <time>2014-07-15T10:26:31+02:00</time>
      </trkpt>
      <trkpt lat="44.75076" lon="6.99322">
        <ele>1761</ele>
        <time>2014-07-15T10:26:36+02:00</time>
      </trkpt>
      <trkpt lat="44.75162" lon="6.99319">
        <ele>1752</ele>
        <time>2014-07-15T10:26:41+02:00</time>
      </trkpt>
      <trkpt lat="44.75236" lon="6.99267">
        <ele>1763</ele>
        <time>2014-07-15T10:26:46+02:00</time>
      </trkpt>
      <trkpt lat="44.75289" lon="6.99237">
        <ele>1759</ele>
        <time>2014-07-15T10:26:51+02:00</time>
      </trkpt>
      <trkpt lat="44.75316" lon="6.99236">
        <ele>1750</ele>
        <time>2014-07-15T10:26:56+02:00</time>
      </trkpt>
      <trkpt lat="44.75358" lon="6.99211">
        <ele>1741</ele>
        <time>2014-07-15T10:27:01+02:00</time>
      </trkpt>
      <trkpt lat="44.75383" lon="6.99167">
        <ele>1751</ele>
        <time>2014-07-15T10:27:06+02:00</time>
      </trkpt>
      <trkpt lat="44.75459" lon="6.99112">
        <ele>1765</ele>
        <time>2014-07-15T10:27:11+02:00</time>
      </trkpt>
      <trkpt lat="44.75532" lon="6.99102">
        <ele>1746</ele>
        <time>2014-07-15T10:27:16+02:00</time>
      </trkpt>
      <trkpt lat="44.75714" lon="6.99112">
        <ele>1710</ele>
        <time>2014-07-15T10:27:21+02:00</time>
      </trkpt>
      <trkpt lat="44.75708" lon="6.99191">
        <ele>1702</ele>
        <time>2014-07-15T10:27:26+02:00</time>
      </trkpt>
      <trkpt lat="44.75744" lon="6.99254">
        <ele>1700</ele>
        <time>2014-07-15T10:27:31+02:00</time>
      </trkpt>
      <trkpt lat="44.75728" lon="6.9928">
        <ele>1700</ele>
        <time>2014-07-15T10:27:36+02:00</time>
      </trkpt>
    </trkseg>
  </trk>
</gpx>